<?xml version='1.0' encoding='UTF-8'?><gpx version="1.1" creator="JPX - https://github.com/jenetics/jpx" xmlns="http://www.topografix.com/GPX/1/1"><trk><trkseg><trkpt lat="45.3940117" lon="8.0150278"><ele>379.0</ele><time>2026-04-27T17:12:34.066Z</time></trkpt><trkpt lat="45.3940961" lon="8.0150372"><ele>379.0</ele><time>2026-04-27T17:12:36.064Z</time></trkpt><trkpt lat="45.39419" lon="8.0150373"><ele>379.0</ele><time>2026-04-27T17:12:38.064Z</time></trkpt><trkpt lat="45.3942921" lon="8.0149952"><ele>379.0</ele><time>2026-04-27T17:12:40.066Z</time></trkpt><trkpt lat="45.3943738" lon="8.0149946"><ele>379.0</ele><time>2026-04-27T17:12:42.066Z</time></trkpt><trkpt lat="45.3944767" lon="8.0150469"><ele>379.0</ele><time>2026-04-27T17:12:44.066Z</time></trkpt><trkpt lat="45.3945481" lon="8.0151083"><ele>379.0</ele><time>2026-04-27T17:12:46.065Z</time></trkpt><trkpt lat="45.3946218" lon="8.0151489"><ele>379.0</ele><time>2026-04-27T17:12:48.066Z</time></trkpt><trkpt lat="45.3946949" lon="8.0151939"><ele>379.0</ele><time>2026-04-27T17:12:50.065Z</time></trkpt><trkpt lat="45.3947714" lon="8.0152118"><ele>379.0</ele><time>2026-04-27T17:12:52.065Z</time></trkpt><trkpt lat="45.3948513" lon="8.0152137"><ele>379.0</ele><time>2026-04-27T17:12:54.066Z</time></trkpt><trkpt lat="45.3949405" lon="8.0152242"><ele>379.66666666666663</ele><time>2026-04-27T17:12:57.067Z</time></trkpt><trkpt lat="45.3950095" lon="8.0152862"><ele>380.3333333333333</ele><time>2026-04-27T17:14:26.065Z</time></trkpt><trkpt lat="45.3950861" lon="8.0153603"><ele>381.0</ele><time>2026-04-27T17:14:28.066Z</time></trkpt><trkpt lat="45.395159" lon="8.0154247"><ele>381.6666666666667</ele><time>2026-04-27T17:14:30.065Z</time></trkpt><trkpt lat="45.3952346" lon="8.0155052"><ele>382.33333333333337</ele><time>2026-04-27T17:14:32.066Z</time></trkpt><trkpt lat="45.395313" lon="8.0155573"><ele>383.0</ele><time>2026-04-27T17:14:34.065Z</time></trkpt><trkpt lat="45.3953997" lon="8.0156056"><ele>383.0</ele><time>2026-04-27T17:14:36.067Z</time></trkpt><trkpt lat="45.3954734" lon="8.0156535"><ele>383.0</ele><time>2026-04-27T17:14:38.065Z</time></trkpt><trkpt lat="45.3955474" lon="8.0157097"><ele>383.0</ele><time>2026-04-27T17:14:40.065Z</time></trkpt><trkpt lat="45.3956332" lon="8.0157933"><ele>383.0</ele><time>2026-04-27T17:14:42.066Z</time></trkpt><trkpt lat="45.3956982" lon="8.01585"><ele>383.0</ele><time>2026-04-27T17:14:44.065Z</time></trkpt><trkpt lat="45.395769" lon="8.015875"><ele>383.0</ele><time>2026-04-27T17:14:47.065Z</time></trkpt><trkpt lat="45.3958468" lon="8.0159219"><ele>383.83333333333337</ele><time>2026-04-27T17:14:50.064Z</time></trkpt><trkpt lat="45.3959213" lon="8.0159484"><ele>384.6666666666667</ele><time>2026-04-27T17:14:53.065Z</time></trkpt><trkpt lat="45.3960016" lon="8.0160033"><ele>385.5</ele><time>2026-04-27T17:14:57.065Z</time></trkpt><trkpt lat="45.3960645" lon="8.0160687"><ele>386.33333333333337</ele><time>2026-04-27T17:14:59.066Z</time></trkpt><trkpt lat="45.3961223" lon="8.0161098"><ele>387.1666666666667</ele><time>2026-04-27T17:15:01.066Z</time></trkpt><trkpt lat="45.3961872" lon="8.0161857"><ele>388.0</ele><time>2026-04-27T17:15:04.065Z</time></trkpt><trkpt lat="45.3962341" lon="8.0162891"><ele>388.00000000000006</ele><time>2026-04-27T17:15:06.064Z</time></trkpt><trkpt lat="45.3962852" lon="8.0163489"><ele>388.0</ele><time>2026-04-27T17:15:16.064Z</time></trkpt><trkpt lat="45.3963559" lon="8.0163236"><ele>388.0</ele><time>2026-04-27T17:15:18.066Z</time></trkpt><trkpt lat="45.3964208" lon="8.0163655"><ele>388.0</ele><time>2026-04-27T17:15:21.066Z</time></trkpt><trkpt lat="45.3963432" lon="8.0163456"><ele>388.00000000000006</ele><time>2026-04-27T17:16:37.062Z</time></trkpt><trkpt lat="45.3962769" lon="8.0163369"><ele>388.0</ele><time>2026-04-27T17:16:39.066Z</time></trkpt><trkpt lat="45.3962006" lon="8.0162371"><ele>388.00000000000006</ele><time>2026-04-27T17:16:42.065Z</time></trkpt><trkpt lat="45.3961467" lon="8.0161572"><ele>388.0</ele><time>2026-04-27T17:16:44.066Z</time></trkpt><trkpt lat="45.3960604" lon="8.0161002"><ele>388.0</ele><time>2026-04-27T17:16:46.065Z</time></trkpt><trkpt lat="45.3959986" lon="8.0160297"><ele>388.0</ele><time>2026-04-27T17:16:48.066Z</time></trkpt><trkpt lat="45.3959465" lon="8.0159743"><ele>388.00000000000006</ele><time>2026-04-27T17:16:50.067Z</time></trkpt><trkpt lat="45.3958601" lon="8.0159356"><ele>388.0</ele><time>2026-04-27T17:16:53.065Z</time></trkpt><trkpt lat="45.3957891" lon="8.015886"><ele>388.00000000000006</ele><time>2026-04-27T17:16:55.065Z</time></trkpt><trkpt lat="45.3957231" lon="8.0158392"><ele>388.0</ele><time>2026-04-27T17:16:57.066Z</time></trkpt><trkpt lat="45.3956561" lon="8.0157937"><ele>388.0</ele><time>2026-04-27T17:16:59.065Z</time></trkpt><trkpt lat="45.3955958" lon="8.0157269"><ele>388.0</ele><time>2026-04-27T17:17:01.064Z</time></trkpt><trkpt lat="45.3955354" lon="8.0156589"><ele>388.00000000000006</ele><time>2026-04-27T17:17:03.065Z</time></trkpt><trkpt lat="45.3954342" lon="8.0156037"><ele>388.0</ele><time>2026-04-27T17:17:05.065Z</time></trkpt><trkpt lat="45.3953599" lon="8.0155801"><ele>387.0</ele><time>2026-04-27T17:17:07.065Z</time></trkpt><trkpt lat="45.3952779" lon="8.0155227"><ele>386.0</ele><time>2026-04-27T17:17:09.065Z</time></trkpt><trkpt lat="45.3951891" lon="8.0154366"><ele>385.0</ele><time>2026-04-27T17:17:11.064Z</time></trkpt><trkpt lat="45.3951109" lon="8.0153608"><ele>384.0</ele><time>2026-04-27T17:17:13.064Z</time></trkpt><trkpt lat="45.395032" lon="8.0152718"><ele>383.0</ele><time>2026-04-27T17:17:15.066Z</time></trkpt><trkpt lat="45.3949743" lon="8.0152202"><ele>383.0</ele><time>2026-04-27T17:17:17.064Z</time></trkpt><trkpt lat="45.3948979" lon="8.0151971"><ele>383.0</ele><time>2026-04-27T17:17:19.065Z</time></trkpt><trkpt lat="45.3948165" lon="8.0151895"><ele>383.0</ele><time>2026-04-27T17:17:21.065Z</time></trkpt><trkpt lat="45.3947391" lon="8.0151845"><ele>383.0</ele><time>2026-04-27T17:17:23.065Z</time></trkpt><trkpt lat="45.3946601" lon="8.0151405"><ele>383.0</ele><time>2026-04-27T17:17:25.065Z</time></trkpt><trkpt lat="45.3945704" lon="8.0150827"><ele>383.0</ele><time>2026-04-27T17:17:27.066Z</time></trkpt><trkpt lat="45.3944871" lon="8.0150293"><ele>382.2</ele><time>2026-04-27T17:17:29.066Z</time></trkpt><trkpt lat="45.3943949" lon="8.014986"><ele>381.4</ele><time>2026-04-27T17:17:31.064Z</time></trkpt><trkpt lat="45.3942916" lon="8.0149754"><ele>380.59999999999997</ele><time>2026-04-27T17:17:33.066Z</time></trkpt><trkpt lat="45.3941891" lon="8.0149965"><ele>379.79999999999995</ele><time>2026-04-27T17:17:35.065Z</time></trkpt><trkpt lat="45.3940885" lon="8.0150232"><ele>379.0</ele><time>2026-04-27T17:17:37.066Z</time></trkpt><trkpt lat="45.3939737" lon="8.0150085"><ele>376.6</ele><time>2026-04-27T17:17:39.065Z</time></trkpt><trkpt lat="45.3938669" lon="8.0149801"><ele>374.2</ele><time>2026-04-27T17:17:41.065Z</time></trkpt><trkpt lat="45.3937816" lon="8.014965"><ele>371.8</ele><time>2026-04-27T17:17:43.066Z</time></trkpt><trkpt lat="45.3936928" lon="8.0149684"><ele>369.40000000000003</ele><time>2026-04-27T17:17:45.065Z</time></trkpt><trkpt lat="45.393609" lon="8.0149485"><ele>367.0</ele><time>2026-04-27T17:17:47.065Z</time></trkpt><trkpt lat="45.3935125" lon="8.0148943"><ele>365.20000000000005</ele><time>2026-04-27T17:17:49.065Z</time></trkpt><trkpt lat="45.3934491" lon="8.0148702"><ele>363.4</ele><time>2026-04-27T17:17:50.064Z</time></trkpt><trkpt lat="45.3933536" lon="8.0148248"><ele>361.6</ele><time>2026-04-27T17:17:52.065Z</time></trkpt><trkpt lat="45.3932486" lon="8.0147861"><ele>359.79999999999995</ele><time>2026-04-27T17:17:54.065Z</time></trkpt><trkpt lat="45.3931327" lon="8.0147715"><ele>358.0</ele><time>2026-04-27T17:17:56.065Z</time></trkpt><trkpt lat="45.3930686" lon="8.0147654"><ele>358.2</ele><time>2026-04-27T17:17:57.065Z</time></trkpt><trkpt lat="45.3929528" lon="8.0147448"><ele>358.4</ele><time>2026-04-27T17:17:59.066Z</time></trkpt><trkpt lat="45.3928639" lon="8.0147484"><ele>358.59999999999997</ele><time>2026-04-27T17:18:01.065Z</time></trkpt><trkpt lat="45.3927872" lon="8.0147309"><ele>358.79999999999995</ele><time>2026-04-27T17:18:03.065Z</time></trkpt><trkpt lat="45.3927045" lon="8.0147031"><ele>359.0</ele><time>2026-04-27T17:18:05.065Z</time></trkpt><trkpt lat="45.3926069" lon="8.0147076"><ele>359.0</ele><time>2026-04-27T17:18:07.066Z</time></trkpt><trkpt lat="45.3925034" lon="8.01474"><ele>359.0</ele><time>2026-04-27T17:18:09.066Z</time></trkpt><trkpt lat="45.3923927" lon="8.0147471"><ele>359.0</ele><time>2026-04-27T17:18:11.067Z</time></trkpt><trkpt lat="45.3922919" lon="8.014728"><ele>359.0</ele><time>2026-04-27T17:18:13.067Z</time></trkpt><trkpt lat="45.3922102" lon="8.0146682"><ele>359.0</ele><time>2026-04-27T17:18:15.064Z</time></trkpt><trkpt lat="45.3921517" lon="8.014556"><ele>359.0</ele><time>2026-04-27T17:18:17.066Z</time></trkpt><trkpt lat="45.3921322" lon="8.0144107"><ele>359.0</ele><time>2026-04-27T17:18:19.065Z</time></trkpt><trkpt lat="45.3921289" lon="8.0142955"><ele>359.0</ele><time>2026-04-27T17:18:21.064Z</time></trkpt><trkpt lat="45.3921679" lon="8.0142131"><ele>359.0</ele><time>2026-04-27T17:18:23.065Z</time></trkpt><trkpt lat="45.3922369" lon="8.0141634"><ele>359.0</ele><time>2026-04-27T17:18:25.065Z</time></trkpt><trkpt lat="45.3923489" lon="8.014077"><ele>358.4</ele><time>2026-04-27T17:18:27.066Z</time></trkpt><trkpt lat="45.3924675" lon="8.0139967"><ele>357.79999999999995</ele><time>2026-04-27T17:18:29.065Z</time></trkpt><trkpt lat="45.3925431" lon="8.0139519"><ele>357.20000000000005</ele><time>2026-04-27T17:18:30.066Z</time></trkpt><trkpt lat="45.3926221" lon="8.0139165"><ele>356.6</ele><time>2026-04-27T17:18:31.066Z</time></trkpt><trkpt lat="45.3927182" lon="8.0138925"><ele>356.0</ele><time>2026-04-27T17:18:32.066Z</time></trkpt><trkpt lat="45.3928127" lon="8.0138731"><ele>356.0</ele><time>2026-04-27T17:18:33.065Z</time></trkpt><trkpt lat="45.3928998" lon="8.0138526"><ele>356.0</ele><time>2026-04-27T17:18:34.065Z</time></trkpt><trkpt lat="45.3929839" lon="8.0138568"><ele>356.0</ele><time>2026-04-27T17:18:35.066Z</time></trkpt><trkpt lat="45.393076" lon="8.0138453"><ele>356.0</ele><time>2026-04-27T17:18:36.065Z</time></trkpt><trkpt lat="45.3931548" lon="8.0138327"><ele>356.0</ele><time>2026-04-27T17:18:37.066Z</time></trkpt><trkpt lat="45.393219" lon="8.0138162"><ele>356.0</ele><time>2026-04-27T17:18:38.064Z</time></trkpt><trkpt lat="45.3932978" lon="8.0137743"><ele>354.8</ele><time>2026-04-27T17:18:40.065Z</time></trkpt><trkpt lat="45.3933353" lon="8.0136518"><ele>353.6</ele><time>2026-04-27T17:18:43.064Z</time></trkpt><trkpt lat="45.393312" lon="8.0134813"><ele>352.4</ele><time>2026-04-27T17:18:45.065Z</time></trkpt><trkpt lat="45.393302" lon="8.0133609"><ele>351.2</ele><time>2026-04-27T17:18:46.066Z</time></trkpt><trkpt lat="45.3932944" lon="8.0132286"><ele>350.0</ele><time>2026-04-27T17:18:47.066Z</time></trkpt><trkpt lat="45.3932881" lon="8.0130932"><ele>349.5</ele><time>2026-04-27T17:18:48.066Z</time></trkpt><trkpt lat="45.3932883" lon="8.012969"><ele>349.0</ele><time>2026-04-27T17:18:49.066Z</time></trkpt><trkpt lat="45.3932912" lon="8.0128554"><ele>348.5</ele><time>2026-04-27T17:18:50.065Z</time></trkpt><trkpt lat="45.3932815" lon="8.0127444"><ele>348.0</ele><time>2026-04-27T17:18:51.066Z</time></trkpt><trkpt lat="45.393258" lon="8.0126327"><ele>347.5</ele><time>2026-04-27T17:18:52.066Z</time></trkpt><trkpt lat="45.3932289" lon="8.0125194"><ele>347.0</ele><time>2026-04-27T17:18:53.065Z</time></trkpt><trkpt lat="45.3932046" lon="8.0124073"><ele>346.8</ele><time>2026-04-27T17:18:54.065Z</time></trkpt><trkpt lat="45.3931778" lon="8.0122867"><ele>346.6</ele><time>2026-04-27T17:18:55.065Z</time></trkpt><trkpt lat="45.3931507" lon="8.0121676"><ele>346.40000000000003</ele><time>2026-04-27T17:18:56.066Z</time></trkpt><trkpt lat="45.3931217" lon="8.0120466"><ele>346.20000000000005</ele><time>2026-04-27T17:18:57.066Z</time></trkpt><trkpt lat="45.3930873" lon="8.0119276"><ele>346.0</ele><time>2026-04-27T17:18:58.066Z</time></trkpt><trkpt lat="45.3930573" lon="8.0117956"><ele>346.0</ele><time>2026-04-27T17:18:59.065Z</time></trkpt><trkpt lat="45.3930275" lon="8.0116599"><ele>346.0</ele><time>2026-04-27T17:19:00.066Z</time></trkpt><trkpt lat="45.3929979" lon="8.0115259"><ele>346.0</ele><time>2026-04-27T17:19:01.065Z</time></trkpt><trkpt lat="45.3929723" lon="8.0113987"><ele>346.0</ele><time>2026-04-27T17:19:02.065Z</time></trkpt><trkpt lat="45.3929488" lon="8.0112954"><ele>346.0</ele><time>2026-04-27T17:19:03.066Z</time></trkpt><trkpt lat="45.3929298" lon="8.011204"><ele>346.0</ele><time>2026-04-27T17:19:04.066Z</time></trkpt><trkpt lat="45.3928828" lon="8.0110733"><ele>346.0</ele><time>2026-04-27T17:19:06.065Z</time></trkpt><trkpt lat="45.3928117" lon="8.0110095"><ele>346.0</ele><time>2026-04-27T17:19:08.065Z</time></trkpt><trkpt lat="45.3926954" lon="8.0109712"><ele>346.0</ele><time>2026-04-27T17:19:10.067Z</time></trkpt><trkpt lat="45.3926187" lon="8.010958"><ele>346.0</ele><time>2026-04-27T17:19:11.064Z</time></trkpt><trkpt lat="45.3925376" lon="8.0109455"><ele>346.0</ele><time>2026-04-27T17:19:12.065Z</time></trkpt><trkpt lat="45.3924555" lon="8.0109333"><ele>346.0</ele><time>2026-04-27T17:19:13.065Z</time></trkpt><trkpt lat="45.392361" lon="8.0109028"><ele>346.0</ele><time>2026-04-27T17:19:14.064Z</time></trkpt><trkpt lat="45.3922673" lon="8.0108694"><ele>346.0</ele><time>2026-04-27T17:19:15.066Z</time></trkpt><trkpt lat="45.3921791" lon="8.0108245"><ele>346.0</ele><time>2026-04-27T17:19:16.065Z</time></trkpt><trkpt lat="45.3920938" lon="8.0107722"><ele>346.0</ele><time>2026-04-27T17:19:17.067Z</time></trkpt><trkpt lat="45.3920041" lon="8.0107158"><ele>346.0</ele><time>2026-04-27T17:19:18.066Z</time></trkpt><trkpt lat="45.3919182" lon="8.0106603"><ele>346.0</ele><time>2026-04-27T17:19:19.066Z</time></trkpt><trkpt lat="45.3918327" lon="8.0105959"><ele>346.0</ele><time>2026-04-27T17:19:20.065Z</time></trkpt><trkpt lat="45.391748" lon="8.0105311"><ele>346.0</ele><time>2026-04-27T17:19:21.065Z</time></trkpt><trkpt lat="45.3916632" lon="8.0104661"><ele>346.0</ele><time>2026-04-27T17:19:22.066Z</time></trkpt><trkpt lat="45.3915785" lon="8.0104079"><ele>346.0</ele><time>2026-04-27T17:19:23.064Z</time></trkpt><trkpt lat="45.391489" lon="8.0103515"><ele>346.0</ele><time>2026-04-27T17:19:24.067Z</time></trkpt><trkpt lat="45.3913941" lon="8.0102938"><ele>346.0</ele><time>2026-04-27T17:19:25.064Z</time></trkpt><trkpt lat="45.3912962" lon="8.0102353"><ele>346.0</ele><time>2026-04-27T17:19:26.065Z</time></trkpt><trkpt lat="45.3911937" lon="8.010177"><ele>346.0</ele><time>2026-04-27T17:19:27.065Z</time></trkpt><trkpt lat="45.3910901" lon="8.0101208"><ele>346.0</ele><time>2026-04-27T17:19:28.065Z</time></trkpt><trkpt lat="45.3909848" lon="8.0100655"><ele>346.16666666666663</ele><time>2026-04-27T17:19:29.065Z</time></trkpt><trkpt lat="45.3908886" lon="8.0100111"><ele>346.3333333333333</ele><time>2026-04-27T17:19:30.065Z</time></trkpt><trkpt lat="45.3907985" lon="8.0099606"><ele>346.5</ele><time>2026-04-27T17:19:31.067Z</time></trkpt><trkpt lat="45.3907162" lon="8.0099171"><ele>346.6666666666667</ele><time>2026-04-27T17:19:32.065Z</time></trkpt><trkpt lat="45.3906425" lon="8.0098714"><ele>346.83333333333337</ele><time>2026-04-27T17:19:33.065Z</time></trkpt><trkpt lat="45.3905717" lon="8.0098241"><ele>347.0</ele><time>2026-04-27T17:19:34.067Z</time></trkpt><trkpt lat="45.3905048" lon="8.0097685"><ele>347.0</ele><time>2026-04-27T17:19:35.065Z</time></trkpt><trkpt lat="45.3904384" lon="8.009696"><ele>347.0</ele><time>2026-04-27T17:19:36.067Z</time></trkpt><trkpt lat="45.3903762" lon="8.0096149"><ele>347.0</ele><time>2026-04-27T17:19:37.065Z</time></trkpt><trkpt lat="45.3903142" lon="8.0095285"><ele>347.0</ele><time>2026-04-27T17:19:38.065Z</time></trkpt><trkpt lat="45.3902508" lon="8.0094385"><ele>347.0</ele><time>2026-04-27T17:19:39.065Z</time></trkpt><trkpt lat="45.3901837" lon="8.0093528"><ele>347.0</ele><time>2026-04-27T17:19:40.066Z</time></trkpt><trkpt lat="45.3901147" lon="8.0092672"><ele>347.0</ele><time>2026-04-27T17:19:41.066Z</time></trkpt><trkpt lat="45.3900435" lon="8.0091823"><ele>347.0</ele><time>2026-04-27T17:19:42.066Z</time></trkpt><trkpt lat="45.3899706" lon="8.0090959"><ele>347.0</ele><time>2026-04-27T17:19:43.067Z</time></trkpt><trkpt lat="45.3898954" lon="8.0090042"><ele>347.0</ele><time>2026-04-27T17:19:44.066Z</time></trkpt><trkpt lat="45.389819" lon="8.0089177"><ele>347.0</ele><time>2026-04-27T17:19:45.066Z</time></trkpt><trkpt lat="45.3897464" lon="8.0088284"><ele>347.1666666666667</ele><time>2026-04-27T17:19:46.066Z</time></trkpt><trkpt lat="45.3896767" lon="8.0087442"><ele>347.33333333333337</ele><time>2026-04-27T17:19:47.065Z</time></trkpt><trkpt lat="45.3896081" lon="8.008664"><ele>347.5</ele><time>2026-04-27T17:19:48.065Z</time></trkpt><trkpt lat="45.3895399" lon="8.0085874"><ele>347.6666666666667</ele><time>2026-04-27T17:19:49.066Z</time></trkpt><trkpt lat="45.3894721" lon="8.0085232"><ele>347.8333333333333</ele><time>2026-04-27T17:19:50.065Z</time></trkpt><trkpt lat="45.3894027" lon="8.0084537"><ele>348.0</ele><time>2026-04-27T17:19:51.066Z</time></trkpt><trkpt lat="45.389332" lon="8.0083844"><ele>347.3333333333333</ele><time>2026-04-27T17:19:52.066Z</time></trkpt><trkpt lat="45.3892579" lon="8.0083104"><ele>346.6666666666667</ele><time>2026-04-27T17:19:53.065Z</time></trkpt><trkpt lat="45.3891871" lon="8.0082474"><ele>346.0</ele><time>2026-04-27T17:19:54.065Z</time></trkpt><trkpt lat="45.3891242" lon="8.0082028"><ele>345.33333333333337</ele><time>2026-04-27T17:19:55.065Z</time></trkpt><trkpt lat="45.3890668" lon="8.0081589"><ele>344.6666666666667</ele><time>2026-04-27T17:19:56.065Z</time></trkpt><trkpt lat="45.3889536" lon="8.0081228"><ele>344.0</ele><time>2026-04-27T17:19:58.065Z</time></trkpt><trkpt lat="45.3888428" lon="8.008153"><ele>343.5</ele><time>2026-04-27T17:20:00.067Z</time></trkpt><trkpt lat="45.3887681" lon="8.0081962"><ele>343.0</ele><time>2026-04-27T17:20:01.066Z</time></trkpt><trkpt lat="45.3886962" lon="8.00822"><ele>342.5</ele><time>2026-04-27T17:20:02.065Z</time></trkpt><trkpt lat="45.388618" lon="8.0082325"><ele>342.0</ele><time>2026-04-27T17:20:03.067Z</time></trkpt><trkpt lat="45.3885235" lon="8.0082418"><ele>341.5</ele><time>2026-04-27T17:20:04.066Z</time></trkpt><trkpt lat="45.3884282" lon="8.0082377"><ele>341.0</ele><time>2026-04-27T17:20:05.065Z</time></trkpt><trkpt lat="45.3883323" lon="8.0082292"><ele>341.0</ele><time>2026-04-27T17:20:06.064Z</time></trkpt><trkpt lat="45.3882372" lon="8.0082162"><ele>341.0</ele><time>2026-04-27T17:20:07.065Z</time></trkpt><trkpt lat="45.3881446" lon="8.0081997"><ele>341.0</ele><time>2026-04-27T17:20:08.065Z</time></trkpt><trkpt lat="45.3880531" lon="8.0081849"><ele>341.0</ele><time>2026-04-27T17:20:09.066Z</time></trkpt><trkpt lat="45.3879588" lon="8.0081703"><ele>341.0</ele><time>2026-04-27T17:20:10.067Z</time></trkpt><trkpt lat="45.3878646" lon="8.0081575"><ele>342.20000000000005</ele><time>2026-04-27T17:20:11.065Z</time></trkpt><trkpt lat="45.3877704" lon="8.0081444"><ele>343.40000000000003</ele><time>2026-04-27T17:20:12.066Z</time></trkpt><trkpt lat="45.3876764" lon="8.0081304"><ele>344.6</ele><time>2026-04-27T17:20:13.066Z</time></trkpt><trkpt lat="45.3875905" lon="8.0081111"><ele>345.8</ele><time>2026-04-27T17:20:14.066Z</time></trkpt><trkpt lat="45.3874945" lon="8.0080947"><ele>347.0</ele><time>2026-04-27T17:20:15.065Z</time></trkpt><trkpt lat="45.3873923" lon="8.0080784"><ele>347.0</ele><time>2026-04-27T17:20:16.065Z</time></trkpt><trkpt lat="45.3872926" lon="8.0080662"><ele>347.0</ele><time>2026-04-27T17:20:17.064Z</time></trkpt><trkpt lat="45.3871783" lon="8.0080404"><ele>347.0</ele><time>2026-04-27T17:20:18.065Z</time></trkpt><trkpt lat="45.3870656" lon="8.0080169"><ele>347.0</ele><time>2026-04-27T17:20:19.065Z</time></trkpt><trkpt lat="45.3869549" lon="8.0080003"><ele>347.0</ele><time>2026-04-27T17:20:20.066Z</time></trkpt><trkpt lat="45.3868466" lon="8.0079791"><ele>348.40000000000003</ele><time>2026-04-27T17:20:21.066Z</time></trkpt><trkpt lat="45.3867434" lon="8.0079632"><ele>349.8</ele><time>2026-04-27T17:20:22.065Z</time></trkpt><trkpt lat="45.3866429" lon="8.0079524"><ele>351.2</ele><time>2026-04-27T17:20:23.065Z</time></trkpt><trkpt lat="45.3865522" lon="8.0079459"><ele>352.6</ele><time>2026-04-27T17:20:24.065Z</time></trkpt><trkpt lat="45.3864685" lon="8.0079385"><ele>354.0</ele><time>2026-04-27T17:20:25.067Z</time></trkpt><trkpt lat="45.3863954" lon="8.0079417"><ele>355.0</ele><time>2026-04-27T17:20:26.066Z</time></trkpt><trkpt lat="45.3863284" lon="8.007961"><ele>356.0</ele><time>2026-04-27T17:20:27.065Z</time></trkpt><trkpt lat="45.3862648" lon="8.0079881"><ele>357.0</ele><time>2026-04-27T17:20:28.065Z</time></trkpt><trkpt lat="45.3861561" lon="8.0079978"><ele>358.0</ele><time>2026-04-27T17:20:30.066Z</time></trkpt><trkpt lat="45.3861001" lon="8.0079356"><ele>359.0</ele><time>2026-04-27T17:20:32.066Z</time></trkpt><trkpt lat="45.3860361" lon="8.0078746"><ele>360.0</ele><time>2026-04-27T17:20:35.065Z</time></trkpt><trkpt lat="45.3859008" lon="8.0078973"><ele>360.0</ele><time>2026-04-27T17:20:37.065Z</time></trkpt><trkpt lat="45.3858082" lon="8.0079252"><ele>360.0</ele><time>2026-04-27T17:20:38.065Z</time></trkpt><trkpt lat="45.3856911" lon="8.0079579"><ele>360.0</ele><time>2026-04-27T17:20:39.065Z</time></trkpt><trkpt lat="45.3855519" lon="8.0079909"><ele>360.0</ele><time>2026-04-27T17:20:40.065Z</time></trkpt><trkpt lat="45.3854027" lon="8.0080286"><ele>360.0</ele><time>2026-04-27T17:20:41.065Z</time></trkpt><trkpt lat="45.3852504" lon="8.0080672"><ele>360.0</ele><time>2026-04-27T17:20:42.065Z</time></trkpt><trkpt lat="45.3851085" lon="8.0081042"><ele>360.0</ele><time>2026-04-27T17:20:43.065Z</time></trkpt><trkpt lat="45.3849692" lon="8.0081325"><ele>360.0</ele><time>2026-04-27T17:20:44.065Z</time></trkpt><trkpt lat="45.3848319" lon="8.0081644"><ele>360.0</ele><time>2026-04-27T17:20:45.066Z</time></trkpt><trkpt lat="45.3846959" lon="8.0081983"><ele>360.0</ele><time>2026-04-27T17:20:46.066Z</time></trkpt><trkpt lat="45.384557" lon="8.0082246"><ele>360.0</ele><time>2026-04-27T17:20:47.066Z</time></trkpt><trkpt lat="45.3844187" lon="8.0082493"><ele>360.0</ele><time>2026-04-27T17:20:48.065Z</time></trkpt><trkpt lat="45.3842797" lon="8.0082795"><ele>359.5</ele><time>2026-04-27T17:20:49.065Z</time></trkpt><trkpt lat="45.3841411" lon="8.0083121"><ele>359.0</ele><time>2026-04-27T17:20:50.065Z</time></trkpt><trkpt lat="45.3840037" lon="8.0083425"><ele>358.5</ele><time>2026-04-27T17:20:51.065Z</time></trkpt><trkpt lat="45.3838663" lon="8.0083692"><ele>358.0</ele><time>2026-04-27T17:20:52.066Z</time></trkpt><trkpt lat="45.3837305" lon="8.008398"><ele>357.75</ele><time>2026-04-27T17:20:53.066Z</time></trkpt><trkpt lat="45.3835997" lon="8.0084304"><ele>357.5</ele><time>2026-04-27T17:20:54.065Z</time></trkpt><trkpt lat="45.3834815" lon="8.0084583"><ele>357.25</ele><time>2026-04-27T17:20:55.065Z</time></trkpt><trkpt lat="45.3833698" lon="8.0084822"><ele>357.0</ele><time>2026-04-27T17:20:56.066Z</time></trkpt><trkpt lat="45.38325" lon="8.0085088"><ele>357.0</ele><time>2026-04-27T17:20:57.065Z</time></trkpt><trkpt lat="45.3831238" lon="8.0085392"><ele>357.0</ele><time>2026-04-27T17:20:58.066Z</time></trkpt><trkpt lat="45.382996" lon="8.0085703"><ele>357.0</ele><time>2026-04-27T17:20:59.065Z</time></trkpt><trkpt lat="45.3828648" lon="8.0086007"><ele>357.0</ele><time>2026-04-27T17:21:00.066Z</time></trkpt><trkpt lat="45.3827294" lon="8.0086377"><ele>356.75</ele><time>2026-04-27T17:21:01.066Z</time></trkpt><trkpt lat="45.3825898" lon="8.008676"><ele>356.5</ele><time>2026-04-27T17:21:02.065Z</time></trkpt><trkpt lat="45.3824453" lon="8.0087168"><ele>356.25</ele><time>2026-04-27T17:21:03.066Z</time></trkpt><trkpt lat="45.3822984" lon="8.0087579"><ele>356.0</ele><time>2026-04-27T17:21:04.065Z</time></trkpt><trkpt lat="45.3821487" lon="8.0087969"><ele>355.0</ele><time>2026-04-27T17:21:05.066Z</time></trkpt><trkpt lat="45.3820017" lon="8.0088389"><ele>354.0</ele><time>2026-04-27T17:21:06.066Z</time></trkpt><trkpt lat="45.3818601" lon="8.0088842"><ele>353.0</ele><time>2026-04-27T17:21:07.066Z</time></trkpt><trkpt lat="45.3817215" lon="8.0089427"><ele>352.0</ele><time>2026-04-27T17:21:08.066Z</time></trkpt><trkpt lat="45.3815898" lon="8.0090176"><ele>352.0</ele><time>2026-04-27T17:21:09.064Z</time></trkpt><trkpt lat="45.3814616" lon="8.0091073"><ele>352.0</ele><time>2026-04-27T17:21:10.065Z</time></trkpt><trkpt lat="45.3813397" lon="8.0092053"><ele>352.0</ele><time>2026-04-27T17:21:11.066Z</time></trkpt><trkpt lat="45.381227" lon="8.0093044"><ele>352.0</ele><time>2026-04-27T17:21:12.066Z</time></trkpt><trkpt lat="45.3811325" lon="8.0093953"><ele>352.14285714285717</ele><time>2026-04-27T17:21:13.066Z</time></trkpt><trkpt lat="45.3810601" lon="8.0094742"><ele>352.2857142857143</ele><time>2026-04-27T17:21:14.065Z</time></trkpt><trkpt lat="45.3810153" lon="8.0095415"><ele>352.42857142857144</ele><time>2026-04-27T17:21:15.066Z</time></trkpt><trkpt lat="45.380995" lon="8.0096353"><ele>352.57142857142856</ele><time>2026-04-27T17:21:17.066Z</time></trkpt><trkpt lat="45.3810079" lon="8.0097625"><ele>352.7142857142857</ele><time>2026-04-27T17:21:20.065Z</time></trkpt><trkpt lat="45.3810165" lon="8.0098515"><ele>352.85714285714283</ele><time>2026-04-27T17:21:22.066Z</time></trkpt><trkpt lat="45.3810403" lon="8.0099347"><ele>353.0</ele><time>2026-04-27T17:21:38.065Z</time></trkpt><trkpt lat="45.3810696" lon="8.0100223"><ele>353.0</ele><time>2026-04-27T17:21:55.065Z</time></trkpt><trkpt lat="45.3810299" lon="8.0099239"><ele>353.0</ele><time>2026-04-27T17:22:11.066Z</time></trkpt><trkpt lat="45.3810087" lon="8.0097891"><ele>353.0</ele><time>2026-04-27T17:22:13.066Z</time></trkpt><trkpt lat="45.381001" lon="8.0096845"><ele>353.0</ele><time>2026-04-27T17:22:15.066Z</time></trkpt><trkpt lat="45.3810106" lon="8.0095946"><ele>353.0</ele><time>2026-04-27T17:22:17.066Z</time></trkpt><trkpt lat="45.3810818" lon="8.0094852"><ele>353.0</ele><time>2026-04-27T17:22:19.065Z</time></trkpt><trkpt lat="45.3811537" lon="8.0094143"><ele>353.0</ele><time>2026-04-27T17:22:20.066Z</time></trkpt><trkpt lat="45.3812425" lon="8.0093306"><ele>353.0</ele><time>2026-04-27T17:22:21.066Z</time></trkpt><trkpt lat="45.3813496" lon="8.0092249"><ele>353.0</ele><time>2026-04-27T17:22:22.066Z</time></trkpt><trkpt lat="45.3814648" lon="8.0091298"><ele>353.0</ele><time>2026-04-27T17:22:23.065Z</time></trkpt><trkpt lat="45.381581" lon="8.0090519"><ele>352.75</ele><time>2026-04-27T17:22:24.066Z</time></trkpt><trkpt lat="45.3816991" lon="8.0089871"><ele>352.5</ele><time>2026-04-27T17:22:25.066Z</time></trkpt><trkpt lat="45.3818219" lon="8.0089356"><ele>352.25</ele><time>2026-04-27T17:22:26.066Z</time></trkpt><trkpt lat="45.3819527" lon="8.0088878"><ele>352.0</ele><time>2026-04-27T17:22:27.065Z</time></trkpt><trkpt lat="45.382088" lon="8.0088461"><ele>353.0</ele><time>2026-04-27T17:22:28.065Z</time></trkpt><trkpt lat="45.3822271" lon="8.0088095"><ele>354.0</ele><time>2026-04-27T17:22:29.065Z</time></trkpt><trkpt lat="45.382367" lon="8.0087743"><ele>355.0</ele><time>2026-04-27T17:22:30.065Z</time></trkpt><trkpt lat="45.3825085" lon="8.0087368"><ele>356.0</ele><time>2026-04-27T17:22:31.066Z</time></trkpt><trkpt lat="45.3826548" lon="8.0086958"><ele>356.0</ele><time>2026-04-27T17:22:32.066Z</time></trkpt><trkpt lat="45.3828136" lon="8.0086594"><ele>356.0</ele><time>2026-04-27T17:22:33.065Z</time></trkpt><trkpt lat="45.3829694" lon="8.0086146"><ele>356.0</ele><time>2026-04-27T17:22:34.066Z</time></trkpt><trkpt lat="45.3831123" lon="8.008581"><ele>356.20000000000005</ele><time>2026-04-27T17:22:35.065Z</time></trkpt><trkpt lat="45.3832344" lon="8.0085531"><ele>356.40000000000003</ele><time>2026-04-27T17:22:36.067Z</time></trkpt><trkpt lat="45.3833474" lon="8.0085268"><ele>356.6</ele><time>2026-04-27T17:22:37.066Z</time></trkpt><trkpt lat="45.3834118" lon="8.0085074"><ele>356.8</ele><time>2026-04-27T17:22:38.066Z</time></trkpt><trkpt lat="45.3834698" lon="8.0084357"><ele>357.0</ele><time>2026-04-27T17:22:40.066Z</time></trkpt><trkpt lat="45.3834652" lon="8.0082973"><ele>360.0</ele><time>2026-04-27T17:22:42.066Z</time></trkpt><trkpt lat="45.383455" lon="8.0082068"><ele>363.0</ele><time>2026-04-27T17:22:43.066Z</time></trkpt><trkpt lat="45.3833861" lon="8.0080735"><ele>366.0</ele><time>2026-04-27T17:22:45.067Z</time></trkpt><trkpt lat="45.3832726" lon="8.0080404"><ele>369.0</ele><time>2026-04-27T17:22:47.065Z</time></trkpt><trkpt lat="45.3831932" lon="8.0080429"><ele>372.0</ele><time>2026-04-27T17:22:48.065Z</time></trkpt><trkpt lat="45.3831023" lon="8.0080392"><ele>371.0</ele><time>2026-04-27T17:22:49.067Z</time></trkpt><trkpt lat="45.3830131" lon="8.0080222"><ele>370.0</ele><time>2026-04-27T17:22:50.067Z</time></trkpt><trkpt lat="45.3829274" lon="8.0080058"><ele>369.0</ele><time>2026-04-27T17:22:51.066Z</time></trkpt><trkpt lat="45.3828459" lon="8.0079863"><ele>368.0</ele><time>2026-04-27T17:22:52.066Z</time></trkpt><trkpt lat="45.382763" lon="8.0079699"><ele>367.0</ele><time>2026-04-27T17:22:53.067Z</time></trkpt><trkpt lat="45.3826867" lon="8.0079625"><ele>366.0</ele><time>2026-04-27T17:22:54.065Z</time></trkpt><trkpt lat="45.3825981" lon="8.0079555"><ele>366.0</ele><time>2026-04-27T17:22:55.067Z</time></trkpt><trkpt lat="45.382515" lon="8.0079511"><ele>366.0</ele><time>2026-04-27T17:22:56.066Z</time></trkpt><trkpt lat="45.3824246" lon="8.0079532"><ele>366.0</ele><time>2026-04-27T17:22:57.067Z</time></trkpt><trkpt lat="45.3823355" lon="8.007961"><ele>366.0</ele><time>2026-04-27T17:22:58.065Z</time></trkpt><trkpt lat="45.3822454" lon="8.0079736"><ele>366.0</ele><time>2026-04-27T17:22:59.066Z</time></trkpt><trkpt lat="45.3821562" lon="8.0079884"><ele>366.0</ele><time>2026-04-27T17:23:00.066Z</time></trkpt><trkpt lat="45.3820687" lon="8.0080197"><ele>364.5</ele><time>2026-04-27T17:23:01.066Z</time></trkpt><trkpt lat="45.3819808" lon="8.0080542"><ele>363.0</ele><time>2026-04-27T17:23:02.066Z</time></trkpt><trkpt lat="45.3818992" lon="8.0081078"><ele>361.5</ele><time>2026-04-27T17:23:03.065Z</time></trkpt><trkpt lat="45.3818158" lon="8.0081647"><ele>360.0</ele><time>2026-04-27T17:23:04.066Z</time></trkpt><trkpt lat="45.3817298" lon="8.0082145"><ele>358.5</ele><time>2026-04-27T17:23:05.065Z</time></trkpt><trkpt lat="45.3816558" lon="8.0082521"><ele>357.0</ele><time>2026-04-27T17:23:06.065Z</time></trkpt><trkpt lat="45.3815511" lon="8.0082589"><ele>357.0</ele><time>2026-04-27T17:23:08.066Z</time></trkpt><trkpt lat="45.3814846" lon="8.0082305"><ele>357.0</ele><time>2026-04-27T17:23:10.067Z</time></trkpt><trkpt lat="45.3814407" lon="8.0081337"><ele>357.0</ele><time>2026-04-27T17:23:12.065Z</time></trkpt><trkpt lat="45.3814028" lon="8.007979"><ele>357.0</ele><time>2026-04-27T17:23:14.065Z</time></trkpt><trkpt lat="45.3813824" lon="8.0078753"><ele>357.0</ele><time>2026-04-27T17:23:15.065Z</time></trkpt><trkpt lat="45.3813588" lon="8.0077693"><ele>357.0</ele><time>2026-04-27T17:23:16.065Z</time></trkpt><trkpt lat="45.3813362" lon="8.0076655"><ele>357.1666666666667</ele><time>2026-04-27T17:23:17.067Z</time></trkpt><trkpt lat="45.381314" lon="8.0075698"><ele>357.3333333333333</ele><time>2026-04-27T17:23:18.066Z</time></trkpt><trkpt lat="45.3812922" lon="8.0074741"><ele>357.5</ele><time>2026-04-27T17:23:19.066Z</time></trkpt><trkpt lat="45.3812787" lon="8.0073669"><ele>357.66666666666663</ele><time>2026-04-27T17:23:20.066Z</time></trkpt><trkpt lat="45.381246" lon="8.0071642"><ele>357.8333333333333</ele><time>2026-04-27T17:23:22.065Z</time></trkpt><trkpt lat="45.3812342" lon="8.0070608"><ele>358.0</ele><time>2026-04-27T17:23:23.066Z</time></trkpt><trkpt lat="45.3812118" lon="8.0069586"><ele>358.0</ele><time>2026-04-27T17:23:24.066Z</time></trkpt><trkpt lat="45.381173" lon="8.0068525"><ele>358.0</ele><time>2026-04-27T17:23:25.065Z</time></trkpt><trkpt lat="45.3811331" lon="8.006757"><ele>358.0</ele><time>2026-04-27T17:23:26.065Z</time></trkpt><trkpt lat="45.3810908" lon="8.006663"><ele>358.0</ele><time>2026-04-27T17:23:27.065Z</time></trkpt><trkpt lat="45.3810487" lon="8.0065768"><ele>358.0</ele><time>2026-04-27T17:23:28.065Z</time></trkpt><trkpt lat="45.3809951" lon="8.0064183"><ele>358.0</ele><time>2026-04-27T17:23:30.066Z</time></trkpt><trkpt lat="45.3809772" lon="8.0062344"><ele>358.5</ele><time>2026-04-27T17:23:32.065Z</time></trkpt><trkpt lat="45.380991" lon="8.0061395"><ele>359.0</ele><time>2026-04-27T17:23:33.065Z</time></trkpt><trkpt lat="45.3810001" lon="8.0060404"><ele>359.5</ele><time>2026-04-27T17:23:34.067Z</time></trkpt><trkpt lat="45.3810188" lon="8.0059123"><ele>360.0</ele><time>2026-04-27T17:23:35.067Z</time></trkpt><trkpt lat="45.3810309" lon="8.0057961"><ele>360.5</ele><time>2026-04-27T17:23:36.065Z</time></trkpt><trkpt lat="45.381037" lon="8.005686"><ele>361.0</ele><time>2026-04-27T17:23:37.066Z</time></trkpt><trkpt lat="45.3810455" lon="8.0055712"><ele>361.16666666666663</ele><time>2026-04-27T17:23:38.067Z</time></trkpt><trkpt lat="45.3810401" lon="8.0054514"><ele>361.3333333333333</ele><time>2026-04-27T17:23:39.066Z</time></trkpt><trkpt lat="45.381034" lon="8.0053299"><ele>361.5</ele><time>2026-04-27T17:23:40.066Z</time></trkpt><trkpt lat="45.3810203" lon="8.0052099"><ele>361.6666666666667</ele><time>2026-04-27T17:23:41.065Z</time></trkpt><trkpt lat="45.3810084" lon="8.0050732"><ele>361.83333333333337</ele><time>2026-04-27T17:23:42.066Z</time></trkpt><trkpt lat="45.3809993" lon="8.0049386"><ele>362.0</ele><time>2026-04-27T17:23:43.066Z</time></trkpt><trkpt lat="45.3809879" lon="8.0048114"><ele>362.1666666666667</ele><time>2026-04-27T17:23:44.065Z</time></trkpt><trkpt lat="45.3809796" lon="8.0046851"><ele>362.33333333333337</ele><time>2026-04-27T17:23:45.068Z</time></trkpt><trkpt lat="45.3809753" lon="8.0045614"><ele>362.5</ele><time>2026-04-27T17:23:46.067Z</time></trkpt><trkpt lat="45.3809696" lon="8.0044354"><ele>362.6666666666667</ele><time>2026-04-27T17:23:47.066Z</time></trkpt><trkpt lat="45.3809615" lon="8.0043198"><ele>362.8333333333333</ele><time>2026-04-27T17:23:48.066Z</time></trkpt><trkpt lat="45.3809611" lon="8.0041919"><ele>363.0</ele><time>2026-04-27T17:23:49.065Z</time></trkpt><trkpt lat="45.3809545" lon="8.0040668"><ele>363.6666666666667</ele><time>2026-04-27T17:23:50.066Z</time></trkpt><trkpt lat="45.3809471" lon="8.0039533"><ele>364.3333333333333</ele><time>2026-04-27T17:23:51.065Z</time></trkpt><trkpt lat="45.380944" lon="8.0038327"><ele>365.0</ele><time>2026-04-27T17:23:52.067Z</time></trkpt><trkpt lat="45.3809491" lon="8.0037148"><ele>365.66666666666663</ele><time>2026-04-27T17:23:53.067Z</time></trkpt><trkpt lat="45.3809628" lon="8.0036003"><ele>366.3333333333333</ele><time>2026-04-27T17:23:54.065Z</time></trkpt><trkpt lat="45.3809692" lon="8.0034815"><ele>367.0</ele><time>2026-04-27T17:23:55.065Z</time></trkpt><trkpt lat="45.3809734" lon="8.0033539"><ele>367.5</ele><time>2026-04-27T17:23:56.066Z</time></trkpt><trkpt lat="45.3809695" lon="8.0032356"><ele>368.0</ele><time>2026-04-27T17:23:57.065Z</time></trkpt><trkpt lat="45.3809647" lon="8.003137"><ele>368.5</ele><time>2026-04-27T17:23:58.066Z</time></trkpt><trkpt lat="45.3809394" lon="8.002992"><ele>369.0</ele><time>2026-04-27T17:24:00.066Z</time></trkpt><trkpt lat="45.3809076" lon="8.0028968"><ele>369.5</ele><time>2026-04-27T17:24:03.066Z</time></trkpt><trkpt lat="45.3808238" lon="8.0028759"><ele>370.0</ele><time>2026-04-27T17:24:07.065Z</time></trkpt><trkpt lat="45.3807575" lon="8.0028756"><ele>370.0</ele><time>2026-04-27T17:24:10.065Z</time></trkpt><trkpt lat="45.3806931" lon="8.0027925"><ele>370.0</ele><time>2026-04-27T17:24:13.067Z</time></trkpt><trkpt lat="45.3806348" lon="8.0026479"><ele>370.0</ele><time>2026-04-27T17:24:15.065Z</time></trkpt><trkpt lat="45.3806107" lon="8.0025536"><ele>370.0</ele><time>2026-04-27T17:24:16.066Z</time></trkpt><trkpt lat="45.3805823" lon="8.0024475"><ele>370.0</ele><time>2026-04-27T17:24:17.065Z</time></trkpt><trkpt lat="45.3805466" lon="8.0023352"><ele>370.0</ele><time>2026-04-27T17:24:18.066Z</time></trkpt><trkpt lat="45.3805177" lon="8.002216"><ele>369.8333333333333</ele><time>2026-04-27T17:24:19.065Z</time></trkpt><trkpt lat="45.3804905" lon="8.0020919"><ele>369.66666666666663</ele><time>2026-04-27T17:24:20.066Z</time></trkpt><trkpt lat="45.3804639" lon="8.0019641"><ele>369.5</ele><time>2026-04-27T17:24:21.065Z</time></trkpt><trkpt lat="45.3804372" lon="8.0018321"><ele>369.3333333333333</ele><time>2026-04-27T17:24:22.065Z</time></trkpt><trkpt lat="45.3804165" lon="8.0017286"><ele>369.1666666666667</ele><time>2026-04-27T17:24:23.065Z</time></trkpt><trkpt lat="45.3803823" lon="8.0016117"><ele>369.0</ele><time>2026-04-27T17:24:24.066Z</time></trkpt><trkpt lat="45.3803535" lon="8.0014841"><ele>369.5</ele><time>2026-04-27T17:24:25.066Z</time></trkpt><trkpt lat="45.3803208" lon="8.0013627"><ele>370.0</ele><time>2026-04-27T17:24:26.066Z</time></trkpt><trkpt lat="45.3802957" lon="8.0012554"><ele>370.5</ele><time>2026-04-27T17:24:27.067Z</time></trkpt><trkpt lat="45.3802532" lon="8.0011289"><ele>371.0</ele><time>2026-04-27T17:24:28.067Z</time></trkpt><trkpt lat="45.3802113" lon="8.0010239"><ele>371.5</ele><time>2026-04-27T17:24:29.065Z</time></trkpt><trkpt lat="45.3801742" lon="8.0009237"><ele>372.0</ele><time>2026-04-27T17:24:30.067Z</time></trkpt><trkpt lat="45.3801294" lon="8.0008324"><ele>372.00000000000006</ele><time>2026-04-27T17:24:31.065Z</time></trkpt><trkpt lat="45.3800974" lon="8.0007438"><ele>372.0</ele><time>2026-04-27T17:24:32.066Z</time></trkpt><trkpt lat="45.3800732" lon="8.000656"><ele>372.0</ele><time>2026-04-27T17:24:33.066Z</time></trkpt><trkpt lat="45.3800568" lon="8.0005629"><ele>372.0</ele><time>2026-04-27T17:24:34.066Z</time></trkpt><trkpt lat="45.3800506" lon="8.0004533"><ele>372.0</ele><time>2026-04-27T17:24:35.066Z</time></trkpt><trkpt lat="45.3800551" lon="8.0003512"><ele>372.00000000000006</ele><time>2026-04-27T17:24:36.066Z</time></trkpt><trkpt lat="45.3800547" lon="8.0002367"><ele>372.0</ele><time>2026-04-27T17:24:37.065Z</time></trkpt><trkpt lat="45.3800559" lon="8.0001221"><ele>372.0</ele><time>2026-04-27T17:24:38.066Z</time></trkpt><trkpt lat="45.3800581" lon="8.0000045"><ele>372.0</ele><time>2026-04-27T17:24:39.065Z</time></trkpt><trkpt lat="45.380052" lon="7.9998867"><ele>372.0</ele><time>2026-04-27T17:24:40.066Z</time></trkpt><trkpt lat="45.380044" lon="7.9997647"><ele>372.0</ele><time>2026-04-27T17:24:41.066Z</time></trkpt><trkpt lat="45.3800287" lon="7.9996389"><ele>372.0</ele><time>2026-04-27T17:24:42.067Z</time></trkpt><trkpt lat="45.3800118" lon="7.9995114"><ele>372.0</ele><time>2026-04-27T17:24:43.068Z</time></trkpt><trkpt lat="45.3799885" lon="7.9993897"><ele>372.0</ele><time>2026-04-27T17:24:44.066Z</time></trkpt><trkpt lat="45.3799691" lon="7.9992621"><ele>372.0</ele><time>2026-04-27T17:24:45.066Z</time></trkpt><trkpt lat="45.3799518" lon="7.9991421"><ele>372.0</ele><time>2026-04-27T17:24:46.067Z</time></trkpt><trkpt lat="45.3799333" lon="7.9990231"><ele>372.0</ele><time>2026-04-27T17:24:47.067Z</time></trkpt><trkpt lat="45.3799159" lon="7.9989056"><ele>372.0</ele><time>2026-04-27T17:24:48.066Z</time></trkpt><trkpt lat="45.3799069" lon="7.9987856"><ele>372.0</ele><time>2026-04-27T17:24:49.066Z</time></trkpt><trkpt lat="45.3798879" lon="7.9986713"><ele>372.6666666666667</ele><time>2026-04-27T17:24:50.066Z</time></trkpt><trkpt lat="45.3798723" lon="7.9985588"><ele>373.3333333333333</ele><time>2026-04-27T17:24:51.065Z</time></trkpt><trkpt lat="45.379858" lon="7.9984407"><ele>374.0</ele><time>2026-04-27T17:24:52.065Z</time></trkpt><trkpt lat="45.3798385" lon="7.9983332"><ele>374.66666666666663</ele><time>2026-04-27T17:24:53.066Z</time></trkpt><trkpt lat="45.379825" lon="7.9982165"><ele>375.3333333333333</ele><time>2026-04-27T17:24:54.066Z</time></trkpt><trkpt lat="45.3798134" lon="7.9981017"><ele>376.0</ele><time>2026-04-27T17:24:55.065Z</time></trkpt><trkpt lat="45.3797908" lon="7.9979713"><ele>376.66666666666663</ele><time>2026-04-27T17:24:56.066Z</time></trkpt><trkpt lat="45.3797764" lon="7.99784"><ele>377.3333333333333</ele><time>2026-04-27T17:24:57.066Z</time></trkpt><trkpt lat="45.3797659" lon="7.9977104"><ele>378.0</ele><time>2026-04-27T17:24:58.065Z</time></trkpt><trkpt lat="45.3797489" lon="7.9975815"><ele>378.6666666666667</ele><time>2026-04-27T17:24:59.065Z</time></trkpt><trkpt lat="45.3797386" lon="7.997467"><ele>379.33333333333337</ele><time>2026-04-27T17:25:00.067Z</time></trkpt><trkpt lat="45.379722" lon="7.9973538"><ele>380.0</ele><time>2026-04-27T17:25:01.066Z</time></trkpt><trkpt lat="45.3797057" lon="7.9972489"><ele>381.83333333333337</ele><time>2026-04-27T17:25:02.065Z</time></trkpt><trkpt lat="45.3796828" lon="7.9971335"><ele>383.6666666666667</ele><time>2026-04-27T17:25:03.065Z</time></trkpt><trkpt lat="45.3796611" lon="7.9970249"><ele>385.5</ele><time>2026-04-27T17:25:04.065Z</time></trkpt><trkpt lat="45.3796453" lon="7.996934"><ele>387.33333333333337</ele><time>2026-04-27T17:25:05.066Z</time></trkpt><trkpt lat="45.3796434" lon="7.9968434"><ele>389.1666666666667</ele><time>2026-04-27T17:25:06.066Z</time></trkpt><trkpt lat="45.3796478" lon="7.9967514"><ele>391.0</ele><time>2026-04-27T17:25:07.067Z</time></trkpt><trkpt lat="45.3796619" lon="7.9965796"><ele>391.50000000000006</ele><time>2026-04-27T17:25:09.065Z</time></trkpt><trkpt lat="45.3796648" lon="7.9964813"><ele>392.0</ele><time>2026-04-27T17:25:10.066Z</time></trkpt><trkpt lat="45.3796633" lon="7.9963862"><ele>392.5</ele><time>2026-04-27T17:25:11.065Z</time></trkpt><trkpt lat="45.3796587" lon="7.9962838"><ele>393.0</ele><time>2026-04-27T17:25:12.066Z</time></trkpt><trkpt lat="45.3796517" lon="7.9961851"><ele>393.50000000000006</ele><time>2026-04-27T17:25:13.066Z</time></trkpt><trkpt lat="45.3796358" lon="7.9960144"><ele>394.0</ele><time>2026-04-27T17:25:15.071Z</time></trkpt><trkpt lat="45.3796174" lon="7.9959172"><ele>394.4</ele><time>2026-04-27T17:25:16.069Z</time></trkpt><trkpt lat="45.379533" lon="7.9957754"><ele>394.79999999999995</ele><time>2026-04-27T17:25:18.067Z</time></trkpt><trkpt lat="45.3794476" lon="7.9956449"><ele>395.20000000000005</ele><time>2026-04-27T17:25:20.065Z</time></trkpt><trkpt lat="45.3794318" lon="7.9955566"><ele>395.6</ele><time>2026-04-27T17:25:21.067Z</time></trkpt><trkpt lat="45.3794216" lon="7.9954089"><ele>396.0</ele><time>2026-04-27T17:25:23.066Z</time></trkpt><trkpt lat="45.3794389" lon="7.995307"><ele>396.0</ele><time>2026-04-27T17:25:24.065Z</time></trkpt><trkpt lat="45.3794579" lon="7.9952099"><ele>396.0</ele><time>2026-04-27T17:25:25.065Z</time></trkpt><trkpt lat="45.3794596" lon="7.9951139"><ele>396.0</ele><time>2026-04-27T17:25:26.065Z</time></trkpt><trkpt lat="45.3794732" lon="7.9949925"><ele>396.0</ele><time>2026-04-27T17:25:27.066Z</time></trkpt><trkpt lat="45.3794728" lon="7.9948866"><ele>396.0</ele><time>2026-04-27T17:25:28.066Z</time></trkpt><trkpt lat="45.3794803" lon="7.9947747"><ele>396.0</ele><time>2026-04-27T17:25:29.066Z</time></trkpt><trkpt lat="45.3795064" lon="7.9946684"><ele>397.0</ele><time>2026-04-27T17:25:30.066Z</time></trkpt><trkpt lat="45.3795168" lon="7.9945403"><ele>398.0</ele><time>2026-04-27T17:25:31.065Z</time></trkpt><trkpt lat="45.3795142" lon="7.9944335"><ele>399.0</ele><time>2026-04-27T17:25:32.066Z</time></trkpt><trkpt lat="45.3795219" lon="7.9943359"><ele>400.0</ele><time>2026-04-27T17:25:33.065Z</time></trkpt><trkpt lat="45.3795393" lon="7.9942192"><ele>401.0</ele><time>2026-04-27T17:25:34.065Z</time></trkpt><trkpt lat="45.3795487" lon="7.9941002"><ele>402.0</ele><time>2026-04-27T17:25:35.065Z</time></trkpt><trkpt lat="45.3795595" lon="7.9939905"><ele>402.8</ele><time>2026-04-27T17:25:36.065Z</time></trkpt><trkpt lat="45.3795726" lon="7.9938948"><ele>403.6</ele><time>2026-04-27T17:25:37.065Z</time></trkpt><trkpt lat="45.3795642" lon="7.9937352"><ele>404.40000000000003</ele><time>2026-04-27T17:25:39.065Z</time></trkpt><trkpt lat="45.3795476" lon="7.9936445"><ele>405.20000000000005</ele><time>2026-04-27T17:25:40.066Z</time></trkpt><trkpt lat="45.3794783" lon="7.9934648"><ele>406.0</ele><time>2026-04-27T17:25:42.066Z</time></trkpt><trkpt lat="45.3794324" lon="7.9933727"><ele>406.1666666666667</ele><time>2026-04-27T17:25:43.066Z</time></trkpt><trkpt lat="45.3793918" lon="7.9932883"><ele>406.33333333333337</ele><time>2026-04-27T17:25:44.066Z</time></trkpt><trkpt lat="45.3793475" lon="7.9931931"><ele>406.5</ele><time>2026-04-27T17:25:45.066Z</time></trkpt><trkpt lat="45.3793065" lon="7.9930731"><ele>406.66666666666663</ele><time>2026-04-27T17:25:46.065Z</time></trkpt><trkpt lat="45.3792754" lon="7.9929522"><ele>406.8333333333333</ele><time>2026-04-27T17:25:47.065Z</time></trkpt><trkpt lat="45.3792379" lon="7.9928427"><ele>407.0</ele><time>2026-04-27T17:25:48.065Z</time></trkpt><trkpt lat="45.3792006" lon="7.9927422"><ele>406.99999999999994</ele><time>2026-04-27T17:25:49.067Z</time></trkpt><trkpt lat="45.3791693" lon="7.9926492"><ele>407.0</ele><time>2026-04-27T17:25:50.065Z</time></trkpt><trkpt lat="45.3791481" lon="7.9925606"><ele>407.0</ele><time>2026-04-27T17:25:51.066Z</time></trkpt><trkpt lat="45.3791084" lon="7.9924622"><ele>407.0</ele><time>2026-04-27T17:25:52.066Z</time></trkpt><trkpt lat="45.3790736" lon="7.9923221"><ele>406.99999999999994</ele><time>2026-04-27T17:25:54.065Z</time></trkpt><trkpt lat="45.3790466" lon="7.9922176"><ele>407.0</ele><time>2026-04-27T17:25:56.067Z</time></trkpt><trkpt lat="45.3790513" lon="7.992316"><ele>407.0</ele><time>2026-04-27T17:26:17.065Z</time></trkpt><trkpt lat="45.3790765" lon="7.9924177"><ele>407.0</ele><time>2026-04-27T17:26:21.065Z</time></trkpt><trkpt lat="45.3790125" lon="7.9925206"><ele>407.0</ele><time>2026-04-27T17:26:24.065Z</time></trkpt><trkpt lat="45.3789372" lon="7.9926097"><ele>407.0</ele><time>2026-04-27T17:26:26.067Z</time></trkpt><trkpt lat="45.3788603" lon="7.9926914"><ele>407.0</ele><time>2026-04-27T17:26:28.065Z</time></trkpt><trkpt lat="45.3787865" lon="7.9927535"><ele>409.8333333333333</ele><time>2026-04-27T17:26:30.066Z</time></trkpt><trkpt lat="45.3787204" lon="7.9927655"><ele>412.66666666666663</ele><time>2026-04-27T17:26:32.067Z</time></trkpt><trkpt lat="45.3786332" lon="7.9927764"><ele>415.5</ele><time>2026-04-27T17:26:35.066Z</time></trkpt><trkpt lat="45.3785431" lon="7.9927816"><ele>418.33333333333337</ele><time>2026-04-27T17:26:39.066Z</time></trkpt><trkpt lat="45.3784888" lon="7.9927015"><ele>421.1666666666667</ele><time>2026-04-27T17:28:24.067Z</time></trkpt><trkpt lat="45.3785457" lon="7.9927464"><ele>424.0</ele><time>2026-04-27T17:30:17.067Z</time></trkpt><trkpt lat="45.3786556" lon="7.9927843"><ele>424.00000000000006</ele><time>2026-04-27T17:31:58.066Z</time></trkpt><trkpt lat="45.3787501" lon="7.992775"><ele>424.0</ele><time>2026-04-27T17:32:01.065Z</time></trkpt><trkpt lat="45.3788291" lon="7.9927202"><ele>424.0</ele><time>2026-04-27T17:32:04.067Z</time></trkpt><trkpt lat="45.3789039" lon="7.9926631"><ele>424.0</ele><time>2026-04-27T17:32:06.067Z</time></trkpt><trkpt lat="45.3789687" lon="7.992592"><ele>424.00000000000006</ele><time>2026-04-27T17:32:08.067Z</time></trkpt><trkpt lat="45.3790203" lon="7.9925261"><ele>424.0</ele><time>2026-04-27T17:32:10.066Z</time></trkpt><trkpt lat="45.3790713" lon="7.9924545"><ele>424.00000000000006</ele><time>2026-04-27T17:32:13.067Z</time></trkpt><trkpt lat="45.3789891" lon="7.9925584"><ele>424.0</ele><time>2026-04-27T17:32:32.067Z</time></trkpt><trkpt lat="45.3789456" lon="7.9926382"><ele>424.0</ele><time>2026-04-27T17:32:33.067Z</time></trkpt><trkpt lat="45.378886" lon="7.9926984"><ele>424.0</ele><time>2026-04-27T17:32:34.065Z</time></trkpt><trkpt lat="45.3787902" lon="7.9927691"><ele>424.00000000000006</ele><time>2026-04-27T17:32:36.066Z</time></trkpt><trkpt lat="45.3787263" lon="7.992756"><ele>424.0</ele><time>2026-04-27T17:32:38.067Z</time></trkpt><trkpt lat="45.3786427" lon="7.9927681"><ele>424.0</ele><time>2026-04-27T17:32:41.066Z</time></trkpt><trkpt lat="45.3785551" lon="7.9927754"><ele>424.0</ele><time>2026-04-27T17:32:44.066Z</time></trkpt><trkpt lat="45.3784849" lon="7.9927197"><ele>424.0</ele><time>2026-04-27T17:32:49.066Z</time></trkpt><trkpt lat="45.3784182" lon="7.9926869"><ele>424.0</ele><time>2026-04-27T17:33:32.066Z</time></trkpt><trkpt lat="45.3783563" lon="7.9926663"><ele>424.0</ele><time>2026-04-27T17:33:35.067Z</time></trkpt><trkpt lat="45.3783119" lon="7.9926011"><ele>424.0</ele><time>2026-04-27T17:34:12.067Z</time></trkpt><trkpt lat="45.3783755" lon="7.9926612"><ele>424.0</ele><time>2026-04-27T17:36:30.068Z</time></trkpt><trkpt lat="45.3784306" lon="7.9927054"><ele>424.0</ele><time>2026-04-27T17:36:36.066Z</time></trkpt><trkpt lat="45.3783711" lon="7.9926402"><ele>424.0</ele><time>2026-04-27T17:36:57.067Z</time></trkpt><trkpt lat="45.378314" lon="7.9925962"><ele>424.0</ele><time>2026-04-27T17:37:05.066Z</time></trkpt><trkpt lat="45.3782961" lon="7.9925101"><ele>424.0</ele><time>2026-04-27T17:37:12.067Z</time></trkpt><trkpt lat="45.3782405" lon="7.9925581"><ele>424.0</ele><time>2026-04-27T17:41:55.977Z</time></trkpt><trkpt lat="45.3782386" lon="7.9926614"><ele>424.0</ele><time>2026-04-27T17:41:58.067Z</time></trkpt><trkpt lat="45.3782144" lon="7.9927448"><ele>424.0</ele><time>2026-04-27T17:41:59.984Z</time></trkpt><trkpt lat="45.378212" lon="7.9928708"><ele>424.0</ele><time>2026-04-27T17:42:02.067Z</time></trkpt><trkpt lat="45.378229" lon="7.992987"><ele>424.0</ele><time>2026-04-27T17:42:04.067Z</time></trkpt><trkpt lat="45.3782257" lon="7.9930979"><ele>424.0</ele><time>2026-04-27T17:42:06.066Z</time></trkpt><trkpt lat="45.3781237" lon="7.9932992"><ele>424.0</ele><time>2026-04-27T17:42:08.066Z</time></trkpt><trkpt lat="45.3780472" lon="7.9933731"><ele>424.0</ele><time>2026-04-27T17:42:10.068Z</time></trkpt><trkpt lat="45.3780338" lon="7.9934983"><ele>426.00000000000006</ele><time>2026-04-27T17:42:14.067Z</time></trkpt><trkpt lat="45.3779872" lon="7.993591"><ele>428.0</ele><time>2026-04-27T17:42:16.067Z</time></trkpt><trkpt lat="45.3779519" lon="7.9937193"><ele>430.0</ele><time>2026-04-27T17:42:17.066Z</time></trkpt><trkpt lat="45.3779231" lon="7.9938251"><ele>432.0</ele><time>2026-04-27T17:42:18.067Z</time></trkpt><trkpt lat="45.3779062" lon="7.9939203"><ele>434.00000000000006</ele><time>2026-04-27T17:42:19.066Z</time></trkpt><trkpt lat="45.3778848" lon="7.9940301"><ele>436.0</ele><time>2026-04-27T17:42:21.066Z</time></trkpt><trkpt lat="45.3778705" lon="7.9941821"><ele>436.4</ele><time>2026-04-27T17:42:23.068Z</time></trkpt><trkpt lat="45.3778344" lon="7.9942937"><ele>436.8</ele><time>2026-04-27T17:42:24.068Z</time></trkpt><trkpt lat="45.3777684" lon="7.9944849"><ele>437.19999999999993</ele><time>2026-04-27T17:42:26.068Z</time></trkpt><trkpt lat="45.3777421" lon="7.9945688"><ele>437.59999999999997</ele><time>2026-04-27T17:42:27.067Z</time></trkpt><trkpt lat="45.3776794" lon="7.9946982"><ele>438.0</ele><time>2026-04-27T17:42:29.067Z</time></trkpt><trkpt lat="45.3775828" lon="7.994802"><ele>438.0</ele><time>2026-04-27T17:42:31.068Z</time></trkpt><trkpt lat="45.3775249" lon="7.9948706"><ele>438.0</ele><time>2026-04-27T17:42:32.066Z</time></trkpt><trkpt lat="45.3774736" lon="7.9949246"><ele>438.0</ele><time>2026-04-27T17:42:33.067Z</time></trkpt><trkpt lat="45.377389" lon="7.9950406"><ele>438.0</ele><time>2026-04-27T17:42:35.066Z</time></trkpt><trkpt lat="45.3773258" lon="7.995149"><ele>438.0</ele><time>2026-04-27T17:42:37.068Z</time></trkpt><trkpt lat="45.3772588" lon="7.9952205"><ele>438.0</ele><time>2026-04-27T17:42:39.066Z</time></trkpt><trkpt lat="45.3772135" lon="7.9953397"><ele>436.8333333333333</ele><time>2026-04-27T17:42:42.068Z</time></trkpt><trkpt lat="45.3771323" lon="7.9954388"><ele>435.66666666666663</ele><time>2026-04-27T17:42:44.068Z</time></trkpt><trkpt lat="45.3770664" lon="7.9955092"><ele>434.5</ele><time>2026-04-27T17:42:46.066Z</time></trkpt><trkpt lat="45.3770177" lon="7.9955709"><ele>433.3333333333333</ele><time>2026-04-27T17:42:48.067Z</time></trkpt><trkpt lat="45.3769446" lon="7.9956539"><ele>432.16666666666663</ele><time>2026-04-27T17:42:51.066Z</time></trkpt><trkpt lat="45.3768678" lon="7.9957379"><ele>431.0</ele><time>2026-04-27T17:42:54.067Z</time></trkpt><trkpt lat="45.3768113" lon="7.995827"><ele>432.0</ele><time>2026-04-27T17:42:56.068Z</time></trkpt><trkpt lat="45.3767832" lon="7.9959444"><ele>433.0</ele><time>2026-04-27T17:42:58.066Z</time></trkpt><trkpt lat="45.376775" lon="7.9960648"><ele>434.0</ele><time>2026-04-27T17:43:00.068Z</time></trkpt><trkpt lat="45.3767518" lon="7.9961728"><ele>435.0</ele><time>2026-04-27T17:43:02.067Z</time></trkpt><trkpt lat="45.3767015" lon="7.9962834"><ele>436.0</ele><time>2026-04-27T17:43:04.066Z</time></trkpt><trkpt lat="45.3766247" lon="7.9964186"><ele>436.0</ele><time>2026-04-27T17:43:06.067Z</time></trkpt><trkpt lat="45.3765652" lon="7.9965456"><ele>436.0</ele><time>2026-04-27T17:43:08.067Z</time></trkpt><trkpt lat="45.3765065" lon="7.9966495"><ele>436.0</ele><time>2026-04-27T17:43:10.067Z</time></trkpt><trkpt lat="45.3764569" lon="7.9967817"><ele>436.0</ele><time>2026-04-27T17:43:12.066Z</time></trkpt><trkpt lat="45.3764049" lon="7.9969319"><ele>436.0</ele><time>2026-04-27T17:43:14.066Z</time></trkpt><trkpt lat="45.3763657" lon="7.9970024"><ele>433.8</ele><time>2026-04-27T17:43:15.066Z</time></trkpt><trkpt lat="45.3763046" lon="7.9971051"><ele>431.6</ele><time>2026-04-27T17:43:17.066Z</time></trkpt><trkpt lat="45.3762161" lon="7.9971769"><ele>429.4</ele><time>2026-04-27T17:43:19.067Z</time></trkpt><trkpt lat="45.3761488" lon="7.9972593"><ele>427.2</ele><time>2026-04-27T17:43:21.066Z</time></trkpt><trkpt lat="45.3760704" lon="7.9973748"><ele>425.0</ele><time>2026-04-27T17:43:23.067Z</time></trkpt><trkpt lat="45.3759929" lon="7.9974804"><ele>425.2</ele><time>2026-04-27T17:43:25.067Z</time></trkpt><trkpt lat="45.3759269" lon="7.9975921"><ele>425.4</ele><time>2026-04-27T17:43:27.067Z</time></trkpt><trkpt lat="45.375859" lon="7.9977086"><ele>425.6</ele><time>2026-04-27T17:43:29.067Z</time></trkpt><trkpt lat="45.3757892" lon="7.9978101"><ele>425.8</ele><time>2026-04-27T17:43:31.066Z</time></trkpt><trkpt lat="45.3757207" lon="7.9979238"><ele>426.0</ele><time>2026-04-27T17:43:33.066Z</time></trkpt><trkpt lat="45.3756507" lon="7.9980286"><ele>426.0</ele><time>2026-04-27T17:43:35.067Z</time></trkpt><trkpt lat="45.3755968" lon="7.9981151"><ele>426.0</ele><time>2026-04-27T17:43:37.066Z</time></trkpt><trkpt lat="45.3755655" lon="7.9981956"><ele>426.0</ele><time>2026-04-27T17:43:38.066Z</time></trkpt><trkpt lat="45.3755118" lon="7.9982989"><ele>426.0</ele><time>2026-04-27T17:43:40.067Z</time></trkpt><trkpt lat="45.3754644" lon="7.9984212"><ele>426.0</ele><time>2026-04-27T17:43:42.067Z</time></trkpt><trkpt lat="45.3754191" lon="7.9985189"><ele>426.0</ele><time>2026-04-27T17:43:44.066Z</time></trkpt><trkpt lat="45.375346" lon="7.9986501"><ele>422.8</ele><time>2026-04-27T17:43:46.066Z</time></trkpt><trkpt lat="45.3752961" lon="7.9987802"><ele>419.6</ele><time>2026-04-27T17:43:48.066Z</time></trkpt><trkpt lat="45.375277" lon="7.9988774"><ele>416.4</ele><time>2026-04-27T17:43:49.067Z</time></trkpt><trkpt lat="45.3752135" lon="7.9990322"><ele>413.2</ele><time>2026-04-27T17:43:51.067Z</time></trkpt><trkpt lat="45.3751557" lon="7.9991524"><ele>410.0</ele><time>2026-04-27T17:43:53.066Z</time></trkpt><trkpt lat="45.375106" lon="7.9992961"><ele>408.6</ele><time>2026-04-27T17:43:55.066Z</time></trkpt><trkpt lat="45.3750781" lon="7.9993858"><ele>407.2</ele><time>2026-04-27T17:43:56.067Z</time></trkpt><trkpt lat="45.3750449" lon="7.99955"><ele>405.79999999999995</ele><time>2026-04-27T17:43:58.067Z</time></trkpt><trkpt lat="45.3750286" lon="7.9996391"><ele>404.4</ele><time>2026-04-27T17:43:59.068Z</time></trkpt><trkpt lat="45.3750255" lon="7.9997971"><ele>403.0</ele><time>2026-04-27T17:44:01.067Z</time></trkpt><trkpt lat="45.3750164" lon="7.9999342"><ele>403.00000000000006</ele><time>2026-04-27T17:44:03.067Z</time></trkpt><trkpt lat="45.3749967" lon="8.0000217"><ele>403.0</ele><time>2026-04-27T17:44:04.067Z</time></trkpt><trkpt lat="45.3749784" lon="8.0001607"><ele>403.0</ele><time>2026-04-27T17:44:06.066Z</time></trkpt><trkpt lat="45.374956" lon="8.0002603"><ele>403.0</ele><time>2026-04-27T17:44:08.067Z</time></trkpt><trkpt lat="45.37498" lon="8.0003688"><ele>403.00000000000006</ele><time>2026-04-27T17:45:09.066Z</time></trkpt><trkpt lat="45.3749897" lon="8.0004717"><ele>403.0</ele><time>2026-04-27T17:45:11.068Z</time></trkpt><trkpt lat="45.3749893" lon="8.000577"><ele>403.00000000000006</ele><time>2026-04-27T17:45:13.067Z</time></trkpt><trkpt lat="45.3749937" lon="8.0006895"><ele>403.0</ele><time>2026-04-27T17:45:15.066Z</time></trkpt><trkpt lat="45.3750075" lon="8.0008106"><ele>403.0</ele><time>2026-04-27T17:45:17.067Z</time></trkpt><trkpt lat="45.3750288" lon="8.000908"><ele>403.0</ele><time>2026-04-27T17:45:19.066Z</time></trkpt><trkpt lat="45.3750416" lon="8.0010078"><ele>403.00000000000006</ele><time>2026-04-27T17:45:21.066Z</time></trkpt><trkpt lat="45.3750091" lon="8.0011286"><ele>403.0</ele><time>2026-04-27T17:45:24.067Z</time></trkpt><trkpt lat="45.3749595" lon="8.0012369"><ele>402.50000000000006</ele><time>2026-04-27T17:45:26.067Z</time></trkpt><trkpt lat="45.3749101" lon="8.0013057"><ele>402.0</ele><time>2026-04-27T17:45:27.068Z</time></trkpt><trkpt lat="45.3748837" lon="8.0014045"><ele>401.5</ele><time>2026-04-27T17:45:29.066Z</time></trkpt><trkpt lat="45.3748712" lon="8.0015622"><ele>401.0</ele><time>2026-04-27T17:45:31.068Z</time></trkpt><trkpt lat="45.3748552" lon="8.0016872"><ele>400.50000000000006</ele><time>2026-04-27T17:45:33.067Z</time></trkpt><trkpt lat="45.3748297" lon="8.0018109"><ele>400.0</ele><time>2026-04-27T17:45:35.075Z</time></trkpt><trkpt lat="45.374813" lon="8.0019506"><ele>399.6</ele><time>2026-04-27T17:45:37.072Z</time></trkpt><trkpt lat="45.3748008" lon="8.0020932"><ele>399.2</ele><time>2026-04-27T17:45:39.067Z</time></trkpt><trkpt lat="45.3747885" lon="8.0022216"><ele>398.79999999999995</ele><time>2026-04-27T17:45:41.066Z</time></trkpt><trkpt lat="45.3747825" lon="8.0023606"><ele>398.4</ele><time>2026-04-27T17:45:43.066Z</time></trkpt><trkpt lat="45.3747414" lon="8.0024799"><ele>398.0</ele><time>2026-04-27T17:45:45.068Z</time></trkpt><trkpt lat="45.3746961" lon="8.0026246"><ele>397.59999999999997</ele><time>2026-04-27T17:45:47.071Z</time></trkpt><trkpt lat="45.3746866" lon="8.0027498"><ele>397.2</ele><time>2026-04-27T17:45:49.067Z</time></trkpt><trkpt lat="45.3746177" lon="8.0028911"><ele>396.8</ele><time>2026-04-27T17:45:51.066Z</time></trkpt><trkpt lat="45.3745846" lon="8.0029807"><ele>396.4</ele><time>2026-04-27T17:45:52.067Z</time></trkpt><trkpt lat="45.3745257" lon="8.0030944"><ele>396.0</ele><time>2026-04-27T17:45:54.067Z</time></trkpt><trkpt lat="45.3744731" lon="8.0032342"><ele>394.4</ele><time>2026-04-27T17:45:56.067Z</time></trkpt><trkpt lat="45.3744054" lon="8.0033753"><ele>392.8</ele><time>2026-04-27T17:45:58.066Z</time></trkpt><trkpt lat="45.3743367" lon="8.0034137"><ele>391.2</ele><time>2026-04-27T17:45:59.067Z</time></trkpt><trkpt lat="45.3743013" lon="8.003553"><ele>389.59999999999997</ele><time>2026-04-27T17:46:01.066Z</time></trkpt><trkpt lat="45.3743015" lon="8.0036921"><ele>388.0</ele><time>2026-04-27T17:46:03.066Z</time></trkpt><trkpt lat="45.3743056" lon="8.0038595"><ele>388.00000000000006</ele><time>2026-04-27T17:46:05.066Z</time></trkpt><trkpt lat="45.3743046" lon="8.0040139"><ele>388.0</ele><time>2026-04-27T17:46:07.066Z</time></trkpt><trkpt lat="45.3742807" lon="8.0041468"><ele>388.0</ele><time>2026-04-27T17:46:09.066Z</time></trkpt><trkpt lat="45.3742134" lon="8.004251"><ele>388.0</ele><time>2026-04-27T17:46:11.068Z</time></trkpt><trkpt lat="45.3741872" lon="8.0043444"><ele>388.00000000000006</ele><time>2026-04-27T17:46:12.066Z</time></trkpt><trkpt lat="45.374172" lon="8.0044342"><ele>388.0</ele><time>2026-04-27T17:46:13.067Z</time></trkpt><trkpt lat="45.3741599" lon="8.0045325"><ele>387.59999999999997</ele><time>2026-04-27T17:46:14.067Z</time></trkpt><trkpt lat="45.374138" lon="8.0046593"><ele>387.2</ele><time>2026-04-27T17:46:15.066Z</time></trkpt><trkpt lat="45.3740896" lon="8.0048018"><ele>386.8</ele><time>2026-04-27T17:46:17.068Z</time></trkpt><trkpt lat="45.374073" lon="8.0049525"><ele>386.4</ele><time>2026-04-27T17:46:19.066Z</time></trkpt><trkpt lat="45.3740538" lon="8.0050868"><ele>386.0</ele><time>2026-04-27T17:46:21.066Z</time></trkpt><trkpt lat="45.3740258" lon="8.0052273"><ele>385.4</ele><time>2026-04-27T17:46:23.066Z</time></trkpt><trkpt lat="45.3740179" lon="8.0053927"><ele>384.8</ele><time>2026-04-27T17:46:25.066Z</time></trkpt><trkpt lat="45.3739883" lon="8.0054798"><ele>384.2</ele><time>2026-04-27T17:46:26.067Z</time></trkpt><trkpt lat="45.373926" lon="8.0056571"><ele>383.59999999999997</ele><time>2026-04-27T17:46:28.068Z</time></trkpt><trkpt lat="45.3739085" lon="8.0058166"><ele>383.0</ele><time>2026-04-27T17:46:30.066Z</time></trkpt><trkpt lat="45.3738934" lon="8.0059189"><ele>383.4</ele><time>2026-04-27T17:46:31.066Z</time></trkpt><trkpt lat="45.3738748" lon="8.0060099"><ele>383.79999999999995</ele><time>2026-04-27T17:46:32.067Z</time></trkpt><trkpt lat="45.3738584" lon="8.0061901"><ele>384.2</ele><time>2026-04-27T17:46:34.066Z</time></trkpt><trkpt lat="45.373851" lon="8.0063344"><ele>384.6</ele><time>2026-04-27T17:46:36.066Z</time></trkpt><trkpt lat="45.3738331" lon="8.0065077"><ele>385.0</ele><time>2026-04-27T17:46:38.067Z</time></trkpt><trkpt lat="45.3738218" lon="8.0066739"><ele>384.33333333333337</ele><time>2026-04-27T17:46:40.066Z</time></trkpt><trkpt lat="45.3738149" lon="8.0067655"><ele>383.6666666666667</ele><time>2026-04-27T17:46:41.067Z</time></trkpt><trkpt lat="45.3738069" lon="8.0068575"><ele>383.0</ele><time>2026-04-27T17:46:42.066Z</time></trkpt><trkpt lat="45.3737893" lon="8.0070134"><ele>382.33333333333337</ele><time>2026-04-27T17:46:44.066Z</time></trkpt><trkpt lat="45.3737651" lon="8.0071541"><ele>381.6666666666667</ele><time>2026-04-27T17:46:46.066Z</time></trkpt><trkpt lat="45.3737395" lon="8.0072943"><ele>381.0</ele><time>2026-04-27T17:46:48.067Z</time></trkpt><trkpt lat="45.3737178" lon="8.0074028"><ele>380.6</ele><time>2026-04-27T17:46:50.066Z</time></trkpt><trkpt lat="45.3736964" lon="8.0075431"><ele>380.20000000000005</ele><time>2026-04-27T17:46:52.066Z</time></trkpt><trkpt lat="45.3736981" lon="8.0076328"><ele>379.79999999999995</ele><time>2026-04-27T17:46:53.067Z</time></trkpt><trkpt lat="45.373699" lon="8.0078023"><ele>379.4</ele><time>2026-04-27T17:46:55.066Z</time></trkpt><trkpt lat="45.3736896" lon="8.0079487"><ele>379.0</ele><time>2026-04-27T17:46:57.067Z</time></trkpt><trkpt lat="45.3736808" lon="8.0081183"><ele>379.0</ele><time>2026-04-27T17:46:59.067Z</time></trkpt><trkpt lat="45.3736751" lon="8.0082582"><ele>379.0</ele><time>2026-04-27T17:47:01.068Z</time></trkpt><trkpt lat="45.3736595" lon="8.0083958"><ele>379.0</ele><time>2026-04-27T17:47:03.067Z</time></trkpt><trkpt lat="45.3736092" lon="8.0085103"><ele>379.0</ele><time>2026-04-27T17:47:05.066Z</time></trkpt><trkpt lat="45.3735743" lon="8.0086296"><ele>379.0</ele><time>2026-04-27T17:47:07.067Z</time></trkpt><trkpt lat="45.3735294" lon="8.0087622"><ele>378.16666666666663</ele><time>2026-04-27T17:47:09.067Z</time></trkpt><trkpt lat="45.3735069" lon="8.0088843"><ele>377.3333333333333</ele><time>2026-04-27T17:47:11.068Z</time></trkpt><trkpt lat="45.3735234" lon="8.0090004"><ele>376.5</ele><time>2026-04-27T17:47:13.066Z</time></trkpt><trkpt lat="45.3735217" lon="8.0091126"><ele>375.6666666666667</ele><time>2026-04-27T17:47:15.068Z</time></trkpt><trkpt lat="45.3735128" lon="8.0092498"><ele>374.83333333333337</ele><time>2026-04-27T17:47:17.068Z</time></trkpt><trkpt lat="45.3734855" lon="8.0093829"><ele>374.0</ele><time>2026-04-27T17:47:19.067Z</time></trkpt><trkpt lat="45.3734722" lon="8.0094815"><ele>373.33333333333337</ele><time>2026-04-27T17:47:21.066Z</time></trkpt><trkpt lat="45.373445" lon="8.0095699"><ele>372.6666666666667</ele><time>2026-04-27T17:47:23.066Z</time></trkpt><trkpt lat="45.3733965" lon="8.0096566"><ele>372.0</ele><time>2026-04-27T17:47:25.067Z</time></trkpt><trkpt lat="45.3733411" lon="8.0097294"><ele>371.3333333333333</ele><time>2026-04-27T17:47:27.067Z</time></trkpt><trkpt lat="45.3732827" lon="8.0097921"><ele>370.66666666666663</ele><time>2026-04-27T17:47:29.067Z</time></trkpt><trkpt lat="45.3732202" lon="8.0098501"><ele>370.0</ele><time>2026-04-27T17:47:31.066Z</time></trkpt><trkpt lat="45.3731603" lon="8.0099323"><ele>369.16666666666663</ele><time>2026-04-27T17:47:33.066Z</time></trkpt><trkpt lat="45.3730985" lon="8.0100072"><ele>368.3333333333333</ele><time>2026-04-27T17:47:35.066Z</time></trkpt><trkpt lat="45.3730286" lon="8.0100756"><ele>367.5</ele><time>2026-04-27T17:47:37.067Z</time></trkpt><trkpt lat="45.3729747" lon="8.0101477"><ele>366.6666666666667</ele><time>2026-04-27T17:47:39.067Z</time></trkpt><trkpt lat="45.3729464" lon="8.0102325"><ele>365.83333333333337</ele><time>2026-04-27T17:47:41.067Z</time></trkpt><trkpt lat="45.3729246" lon="8.0103231"><ele>365.0</ele><time>2026-04-27T17:47:43.066Z</time></trkpt><trkpt lat="45.3729002" lon="8.0104649"><ele>365.0</ele><time>2026-04-27T17:47:45.067Z</time></trkpt><trkpt lat="45.3728437" lon="8.0106501"><ele>365.0</ele><time>2026-04-27T17:47:47.067Z</time></trkpt><trkpt lat="45.3727833" lon="8.0107859"><ele>365.0</ele><time>2026-04-27T17:47:49.067Z</time></trkpt><trkpt lat="45.3727475" lon="8.0108634"><ele>365.0</ele><time>2026-04-27T17:47:50.068Z</time></trkpt><trkpt lat="45.3727022" lon="8.0109995"><ele>365.0</ele><time>2026-04-27T17:47:52.068Z</time></trkpt><trkpt lat="45.3726647" lon="8.0111193"><ele>364.1666666666667</ele><time>2026-04-27T17:47:54.067Z</time></trkpt><trkpt lat="45.3726188" lon="8.0112515"><ele>363.33333333333337</ele><time>2026-04-27T17:47:56.068Z</time></trkpt><trkpt lat="45.3725824" lon="8.0113278"><ele>362.5</ele><time>2026-04-27T17:47:57.066Z</time></trkpt><trkpt lat="45.3725663" lon="8.0114174"><ele>361.6666666666667</ele><time>2026-04-27T17:47:58.066Z</time></trkpt><trkpt lat="45.3725348" lon="8.0115601"><ele>360.8333333333333</ele><time>2026-04-27T17:48:00.068Z</time></trkpt><trkpt lat="45.3725293" lon="8.0116661"><ele>360.0</ele><time>2026-04-27T17:48:02.067Z</time></trkpt><trkpt lat="45.3725168" lon="8.0117797"><ele>359.0</ele><time>2026-04-27T17:48:04.067Z</time></trkpt><trkpt lat="45.3725073" lon="8.0119022"><ele>358.0</ele><time>2026-04-27T17:48:50.066Z</time></trkpt><trkpt lat="45.3725057" lon="8.0120377"><ele>357.0</ele><time>2026-04-27T17:48:53.069Z</time></trkpt><trkpt lat="45.3724853" lon="8.0121364"><ele>356.0</ele><time>2026-04-27T17:48:55.067Z</time></trkpt><trkpt lat="45.3724464" lon="8.0122234"><ele>355.0</ele><time>2026-04-27T17:48:57.068Z</time></trkpt><trkpt lat="45.3724306" lon="8.012329"><ele>354.0</ele><time>2026-04-27T17:48:58.066Z</time></trkpt><trkpt lat="45.3724259" lon="8.0124284"><ele>353.4</ele><time>2026-04-27T17:48:59.067Z</time></trkpt><trkpt lat="45.3724309" lon="8.0125877"><ele>352.79999999999995</ele><time>2026-04-27T17:49:01.066Z</time></trkpt><trkpt lat="45.3724578" lon="8.0127413"><ele>352.20000000000005</ele><time>2026-04-27T17:49:03.066Z</time></trkpt><trkpt lat="45.3724682" lon="8.0128588"><ele>351.6</ele><time>2026-04-27T17:49:05.067Z</time></trkpt><trkpt lat="45.3724996" lon="8.0129598"><ele>351.0</ele><time>2026-04-27T17:49:07.067Z</time></trkpt><trkpt lat="45.372533" lon="8.0130529"><ele>351.0</ele><time>2026-04-27T17:49:09.067Z</time></trkpt><trkpt lat="45.3725611" lon="8.0131698"><ele>351.0</ele><time>2026-04-27T17:49:11.067Z</time></trkpt><trkpt lat="45.3725912" lon="8.0132756"><ele>351.0</ele><time>2026-04-27T17:49:13.068Z</time></trkpt><trkpt lat="45.3726391" lon="8.0134267"><ele>351.0</ele><time>2026-04-27T17:49:16.066Z</time></trkpt><trkpt lat="45.3726518" lon="8.0135679"><ele>351.0</ele><time>2026-04-27T17:49:18.068Z</time></trkpt><trkpt lat="45.3726627" lon="8.0136914"><ele>350.8333333333333</ele><time>2026-04-27T17:49:20.066Z</time></trkpt><trkpt lat="45.3726939" lon="8.0138161"><ele>350.6666666666667</ele><time>2026-04-27T17:49:23.067Z</time></trkpt><trkpt lat="45.3727201" lon="8.0139426"><ele>350.5</ele><time>2026-04-27T17:49:25.067Z</time></trkpt><trkpt lat="45.3727417" lon="8.0140844"><ele>350.33333333333337</ele><time>2026-04-27T17:49:27.068Z</time></trkpt><trkpt lat="45.3727604" lon="8.0141793"><ele>350.1666666666667</ele><time>2026-04-27T17:49:29.067Z</time></trkpt><trkpt lat="45.3727477" lon="8.0140647"><ele>350.0</ele><time>2026-04-27T17:52:30.068Z</time></trkpt><trkpt lat="45.3727306" lon="8.0139542"><ele>350.0</ele><time>2026-04-27T17:52:32.067Z</time></trkpt><trkpt lat="45.372707" lon="8.0138376"><ele>350.0</ele><time>2026-04-27T17:52:34.066Z</time></trkpt><trkpt lat="45.3726842" lon="8.0137334"><ele>350.0</ele><time>2026-04-27T17:52:37.067Z</time></trkpt><trkpt lat="45.3726291" lon="8.0138143"><ele>350.0</ele><time>2026-04-27T17:52:41.068Z</time></trkpt><trkpt lat="45.3726586" lon="8.0139251"><ele>350.0</ele><time>2026-04-27T17:52:43.067Z</time></trkpt><trkpt lat="45.3726829" lon="8.0140441"><ele>350.0</ele><time>2026-04-27T17:52:45.069Z</time></trkpt><trkpt lat="45.3727045" lon="8.0141566"><ele>349.2</ele><time>2026-04-27T17:52:47.067Z</time></trkpt><trkpt lat="45.3727264" lon="8.0142675"><ele>348.4</ele><time>2026-04-27T17:52:49.066Z</time></trkpt><trkpt lat="45.3727569" lon="8.0144063"><ele>347.6</ele><time>2026-04-27T17:52:51.067Z</time></trkpt><trkpt lat="45.3727829" lon="8.0145407"><ele>346.8</ele><time>2026-04-27T17:52:53.066Z</time></trkpt><trkpt lat="45.3728103" lon="8.0146593"><ele>346.0</ele><time>2026-04-27T17:52:55.068Z</time></trkpt><trkpt lat="45.3728406" lon="8.0147772"><ele>346.0</ele><time>2026-04-27T17:52:57.067Z</time></trkpt><trkpt lat="45.3728635" lon="8.0149124"><ele>346.0</ele><time>2026-04-27T17:52:59.067Z</time></trkpt><trkpt lat="45.3728837" lon="8.0150449"><ele>346.0</ele><time>2026-04-27T17:53:01.068Z</time></trkpt><trkpt lat="45.3729116" lon="8.0151638"><ele>346.0</ele><time>2026-04-27T17:53:03.067Z</time></trkpt><trkpt lat="45.3729701" lon="8.0152538"><ele>346.0</ele><time>2026-04-27T17:53:06.067Z</time></trkpt><trkpt lat="45.3730214" lon="8.0153798"><ele>346.20000000000005</ele><time>2026-04-27T17:53:09.067Z</time></trkpt><trkpt lat="45.3730361" lon="8.0155503"><ele>346.40000000000003</ele><time>2026-04-27T17:53:11.067Z</time></trkpt><trkpt lat="45.3730449" lon="8.015641"><ele>346.6</ele><time>2026-04-27T17:53:12.067Z</time></trkpt><trkpt lat="45.3730608" lon="8.0158135"><ele>346.8</ele><time>2026-04-27T17:53:14.068Z</time></trkpt><trkpt lat="45.3730743" lon="8.0159668"><ele>347.0</ele><time>2026-04-27T17:53:16.067Z</time></trkpt><trkpt lat="45.3730937" lon="8.0161293"><ele>347.0</ele><time>2026-04-27T17:53:18.069Z</time></trkpt><trkpt lat="45.3731098" lon="8.0162917"><ele>347.0</ele><time>2026-04-27T17:53:20.068Z</time></trkpt><trkpt lat="45.3731117" lon="8.0164504"><ele>347.0</ele><time>2026-04-27T17:53:22.067Z</time></trkpt><trkpt lat="45.3731312" lon="8.0166013"><ele>347.0</ele><time>2026-04-27T17:53:24.069Z</time></trkpt><trkpt lat="45.3731439" lon="8.0167397"><ele>347.0</ele><time>2026-04-27T17:53:26.066Z</time></trkpt><trkpt lat="45.3732127" lon="8.0168499"><ele>345.6</ele><time>2026-04-27T17:53:28.067Z</time></trkpt><trkpt lat="45.3732837" lon="8.0169693"><ele>344.20000000000005</ele><time>2026-04-27T17:53:30.068Z</time></trkpt><trkpt lat="45.3733481" lon="8.0170925"><ele>342.8</ele><time>2026-04-27T17:53:32.068Z</time></trkpt><trkpt lat="45.3734082" lon="8.0172279"><ele>341.4</ele><time>2026-04-27T17:53:34.066Z</time></trkpt><trkpt lat="45.3734434" lon="8.0173599"><ele>340.0</ele><time>2026-04-27T17:53:36.066Z</time></trkpt><trkpt lat="45.3734647" lon="8.0174932"><ele>338.8</ele><time>2026-04-27T17:53:38.067Z</time></trkpt><trkpt lat="45.3734652" lon="8.0176204"><ele>337.6</ele><time>2026-04-27T17:53:40.068Z</time></trkpt><trkpt lat="45.373456" lon="8.017781"><ele>336.4</ele><time>2026-04-27T17:53:42.068Z</time></trkpt><trkpt lat="45.3734429" lon="8.0179178"><ele>335.2</ele><time>2026-04-27T17:53:44.066Z</time></trkpt><trkpt lat="45.3734296" lon="8.0180632"><ele>334.0</ele><time>2026-04-27T17:53:46.068Z</time></trkpt><trkpt lat="45.373441" lon="8.0182235"><ele>333.16666666666663</ele><time>2026-04-27T17:53:48.068Z</time></trkpt><trkpt lat="45.3734452" lon="8.0183613"><ele>332.3333333333333</ele><time>2026-04-27T17:53:50.068Z</time></trkpt><trkpt lat="45.3734506" lon="8.0184976"><ele>331.5</ele><time>2026-04-27T17:53:52.067Z</time></trkpt><trkpt lat="45.3734653" lon="8.0186051"><ele>330.6666666666667</ele><time>2026-04-27T17:53:54.066Z</time></trkpt><trkpt lat="45.3734765" lon="8.0187214"><ele>329.83333333333337</ele><time>2026-04-27T17:53:56.068Z</time></trkpt><trkpt lat="45.3735026" lon="8.0188465"><ele>329.0</ele><time>2026-04-27T17:53:58.067Z</time></trkpt><trkpt lat="45.373533" lon="8.0189907"><ele>329.0</ele><time>2026-04-27T17:54:00.067Z</time></trkpt><trkpt lat="45.3735591" lon="8.0191002"><ele>329.0</ele><time>2026-04-27T17:54:02.067Z</time></trkpt><trkpt lat="45.3735832" lon="8.0192314"><ele>329.0</ele><time>2026-04-27T17:54:04.067Z</time></trkpt><trkpt lat="45.3736264" lon="8.0193535"><ele>329.0</ele><time>2026-04-27T17:54:06.068Z</time></trkpt><trkpt lat="45.3736733" lon="8.0194165"><ele>329.0</ele><time>2026-04-27T17:54:09.068Z</time></trkpt><trkpt lat="45.3737455" lon="8.0193614"><ele>329.0</ele><time>2026-04-27T17:54:25.067Z</time></trkpt><trkpt lat="45.3738223" lon="8.019246"><ele>327.83333333333337</ele><time>2026-04-27T17:54:32.068Z</time></trkpt><trkpt lat="45.373891" lon="8.019167"><ele>326.6666666666667</ele><time>2026-04-27T17:54:34.068Z</time></trkpt><trkpt lat="45.3739689" lon="8.0190992"><ele>325.5</ele><time>2026-04-27T17:54:36.067Z</time></trkpt><trkpt lat="45.3740379" lon="8.0190255"><ele>324.3333333333333</ele><time>2026-04-27T17:54:38.067Z</time></trkpt><trkpt lat="45.374101" lon="8.0189537"><ele>323.16666666666663</ele><time>2026-04-27T17:54:40.066Z</time></trkpt><trkpt lat="45.3741802" lon="8.0189572"><ele>322.0</ele><time>2026-04-27T17:54:42.068Z</time></trkpt><trkpt lat="45.37426" lon="8.018928"><ele>322.0</ele><time>2026-04-27T17:54:44.068Z</time></trkpt><trkpt lat="45.3743312" lon="8.0189197"><ele>322.0</ele><time>2026-04-27T17:54:46.066Z</time></trkpt><trkpt lat="45.3744149" lon="8.0189034"><ele>322.0</ele><time>2026-04-27T17:54:48.067Z</time></trkpt><trkpt lat="45.3745152" lon="8.0188474"><ele>322.0</ele><time>2026-04-27T17:54:50.068Z</time></trkpt><trkpt lat="45.3745744" lon="8.0188049"><ele>322.0</ele><time>2026-04-27T17:54:51.068Z</time></trkpt><trkpt lat="45.3746392" lon="8.0187548"><ele>322.0</ele><time>2026-04-27T17:54:52.067Z</time></trkpt><trkpt lat="45.3747074" lon="8.0187016"><ele>321.5</ele><time>2026-04-27T17:54:53.068Z</time></trkpt><trkpt lat="45.3747787" lon="8.0186441"><ele>321.0</ele><time>2026-04-27T17:54:54.067Z</time></trkpt><trkpt lat="45.3748458" lon="8.0185913"><ele>320.5</ele><time>2026-04-27T17:54:55.068Z</time></trkpt><trkpt lat="45.3749087" lon="8.0185484"><ele>320.0</ele><time>2026-04-27T17:54:56.066Z</time></trkpt><trkpt lat="45.3750221" lon="8.0185071"><ele>319.5</ele><time>2026-04-27T17:54:58.067Z</time></trkpt><trkpt lat="45.3751131" lon="8.018532"><ele>319.0</ele><time>2026-04-27T17:55:00.067Z</time></trkpt><trkpt lat="45.3751682" lon="8.0185889"><ele>319.0</ele><time>2026-04-27T17:55:17.068Z</time></trkpt><trkpt lat="45.375144" lon="8.0187416"><ele>319.0</ele><time>2026-04-27T17:55:19.068Z</time></trkpt><trkpt lat="45.3751181" lon="8.0188436"><ele>319.0</ele><time>2026-04-27T17:55:20.068Z</time></trkpt><trkpt lat="45.3750994" lon="8.0189553"><ele>319.0</ele><time>2026-04-27T17:55:21.067Z</time></trkpt><trkpt lat="45.3750848" lon="8.0190838"><ele>319.0</ele><time>2026-04-27T17:55:22.067Z</time></trkpt><trkpt lat="45.3750662" lon="8.0192412"><ele>318.25</ele><time>2026-04-27T17:55:23.068Z</time></trkpt><trkpt lat="45.3750543" lon="8.0194261"><ele>317.5</ele><time>2026-04-27T17:55:24.068Z</time></trkpt><trkpt lat="45.3750527" lon="8.0196334"><ele>316.75</ele><time>2026-04-27T17:55:25.067Z</time></trkpt><trkpt lat="45.3750531" lon="8.0198634"><ele>316.0</ele><time>2026-04-27T17:55:26.067Z</time></trkpt><trkpt lat="45.3750618" lon="8.0200959"><ele>315.5</ele><time>2026-04-27T17:55:27.068Z</time></trkpt><trkpt lat="45.3750612" lon="8.0203142"><ele>315.0</ele><time>2026-04-27T17:55:28.068Z</time></trkpt><trkpt lat="45.3750612" lon="8.0205225"><ele>314.5</ele><time>2026-04-27T17:55:29.069Z</time></trkpt><trkpt lat="45.3750572" lon="8.0207183"><ele>314.0</ele><time>2026-04-27T17:55:30.068Z</time></trkpt><trkpt lat="45.3750505" lon="8.0209165"><ele>313.5</ele><time>2026-04-27T17:55:31.068Z</time></trkpt><trkpt lat="45.3750426" lon="8.0211125"><ele>313.0</ele><time>2026-04-27T17:55:32.069Z</time></trkpt><trkpt lat="45.3750301" lon="8.0213093"><ele>312.5</ele><time>2026-04-27T17:55:33.067Z</time></trkpt><trkpt lat="45.3750172" lon="8.0215145"><ele>312.0</ele><time>2026-04-27T17:55:34.068Z</time></trkpt><trkpt lat="45.375" lon="8.021726"><ele>311.0</ele><time>2026-04-27T17:55:35.067Z</time></trkpt><trkpt lat="45.3749848" lon="8.0219442"><ele>310.0</ele><time>2026-04-27T17:55:36.068Z</time></trkpt><trkpt lat="45.3749701" lon="8.0221709"><ele>309.0</ele><time>2026-04-27T17:55:37.068Z</time></trkpt><trkpt lat="45.3749547" lon="8.0223988"><ele>308.3333333333333</ele><time>2026-04-27T17:55:38.069Z</time></trkpt><trkpt lat="45.3749393" lon="8.0226297"><ele>307.66666666666663</ele><time>2026-04-27T17:55:39.066Z</time></trkpt><trkpt lat="45.3749211" lon="8.0228645"><ele>307.0</ele><time>2026-04-27T17:55:40.067Z</time></trkpt><trkpt lat="45.3749049" lon="8.0231061"><ele>306.0</ele><time>2026-04-27T17:55:41.067Z</time></trkpt><trkpt lat="45.3748906" lon="8.0233473"><ele>305.0</ele><time>2026-04-27T17:55:42.067Z</time></trkpt><trkpt lat="45.374874" lon="8.0235881"><ele>304.0</ele><time>2026-04-27T17:55:43.067Z</time></trkpt><trkpt lat="45.3748589" lon="8.0238286"><ele>304.0</ele><time>2026-04-27T17:55:44.067Z</time></trkpt><trkpt lat="45.3748412" lon="8.024072"><ele>304.0</ele><time>2026-04-27T17:55:45.067Z</time></trkpt><trkpt lat="45.3748249" lon="8.0243119"><ele>304.0</ele><time>2026-04-27T17:55:46.068Z</time></trkpt><trkpt lat="45.3748072" lon="8.0245615"><ele>303.3333333333333</ele><time>2026-04-27T17:55:47.067Z</time></trkpt><trkpt lat="45.3747916" lon="8.0248055"><ele>302.6666666666667</ele><time>2026-04-27T17:55:48.067Z</time></trkpt><trkpt lat="45.3747775" lon="8.0250502"><ele>302.0</ele><time>2026-04-27T17:55:49.067Z</time></trkpt><trkpt lat="45.3747624" lon="8.0252815"><ele>301.75</ele><time>2026-04-27T17:55:50.067Z</time></trkpt><trkpt lat="45.3747449" lon="8.0255037"><ele>301.5</ele><time>2026-04-27T17:55:51.067Z</time></trkpt><trkpt lat="45.3747182" lon="8.0257105"><ele>301.25</ele><time>2026-04-27T17:55:52.067Z</time></trkpt><trkpt lat="45.3746811" lon="8.0258998"><ele>301.0</ele><time>2026-04-27T17:55:53.067Z</time></trkpt><trkpt lat="45.374636" lon="8.0260752"><ele>301.5</ele><time>2026-04-27T17:55:54.067Z</time></trkpt><trkpt lat="45.3745795" lon="8.0262362"><ele>302.0</ele><time>2026-04-27T17:55:55.067Z</time></trkpt><trkpt lat="45.3745176" lon="8.0263788"><ele>302.5</ele><time>2026-04-27T17:55:56.067Z</time></trkpt><trkpt lat="45.3744471" lon="8.0265055"><ele>303.0</ele><time>2026-04-27T17:55:57.068Z</time></trkpt><trkpt lat="45.3743712" lon="8.0266158"><ele>302.8</ele><time>2026-04-27T17:55:58.066Z</time></trkpt><trkpt lat="45.374296" lon="8.0267127"><ele>302.6</ele><time>2026-04-27T17:55:59.068Z</time></trkpt><trkpt lat="45.3742167" lon="8.0268015"><ele>302.4</ele><time>2026-04-27T17:56:00.067Z</time></trkpt><trkpt lat="45.3741359" lon="8.0268779"><ele>302.2</ele><time>2026-04-27T17:56:01.067Z</time></trkpt><trkpt lat="45.3740561" lon="8.0269394"><ele>302.0</ele><time>2026-04-27T17:56:02.068Z</time></trkpt><trkpt lat="45.3739643" lon="8.0269999"><ele>302.0</ele><time>2026-04-27T17:56:03.069Z</time></trkpt><trkpt lat="45.3738576" lon="8.0270711"><ele>302.0</ele><time>2026-04-27T17:56:04.067Z</time></trkpt><trkpt lat="45.3737425" lon="8.0271421"><ele>302.0</ele><time>2026-04-27T17:56:05.066Z</time></trkpt><trkpt lat="45.3736216" lon="8.0272162"><ele>302.0</ele><time>2026-04-27T17:56:06.068Z</time></trkpt><trkpt lat="45.3734988" lon="8.0272989"><ele>301.25</ele><time>2026-04-27T17:56:07.066Z</time></trkpt><trkpt lat="45.3733743" lon="8.0273873"><ele>300.5</ele><time>2026-04-27T17:56:08.067Z</time></trkpt><trkpt lat="45.3732499" lon="8.0274892"><ele>299.75</ele><time>2026-04-27T17:56:09.068Z</time></trkpt><trkpt lat="45.3731276" lon="8.0276059"><ele>299.0</ele><time>2026-04-27T17:56:10.067Z</time></trkpt><trkpt lat="45.3730079" lon="8.0277385"><ele>298.33333333333337</ele><time>2026-04-27T17:56:11.068Z</time></trkpt><trkpt lat="45.3728922" lon="8.0278827"><ele>297.6666666666667</ele><time>2026-04-27T17:56:12.068Z</time></trkpt><trkpt lat="45.372776" lon="8.0280419"><ele>297.0</ele><time>2026-04-27T17:56:13.067Z</time></trkpt><trkpt lat="45.3726637" lon="8.0282088"><ele>296.6666666666667</ele><time>2026-04-27T17:56:14.069Z</time></trkpt><trkpt lat="45.3725515" lon="8.0283791"><ele>296.33333333333337</ele><time>2026-04-27T17:56:15.067Z</time></trkpt><trkpt lat="45.3724373" lon="8.0285555"><ele>296.0</ele><time>2026-04-27T17:56:16.068Z</time></trkpt><trkpt lat="45.3723207" lon="8.028732"><ele>296.0</ele><time>2026-04-27T17:56:17.068Z</time></trkpt><trkpt lat="45.3722023" lon="8.028917"><ele>296.0</ele><time>2026-04-27T17:56:18.066Z</time></trkpt><trkpt lat="45.3720802" lon="8.0291004"><ele>296.0</ele><time>2026-04-27T17:56:19.073Z</time></trkpt><trkpt lat="45.3719519" lon="8.0292875"><ele>295.6666666666667</ele><time>2026-04-27T17:56:20.067Z</time></trkpt><trkpt lat="45.3718201" lon="8.0294752"><ele>295.3333333333333</ele><time>2026-04-27T17:56:21.068Z</time></trkpt><trkpt lat="45.3716855" lon="8.0296529"><ele>295.0</ele><time>2026-04-27T17:56:22.068Z</time></trkpt><trkpt lat="45.3715509" lon="8.0298141"><ele>295.0</ele><time>2026-04-27T17:56:23.068Z</time></trkpt><trkpt lat="45.3714105" lon="8.0299602"><ele>295.0</ele><time>2026-04-27T17:56:24.068Z</time></trkpt><trkpt lat="45.3712682" lon="8.0301043"><ele>295.0</ele><time>2026-04-27T17:56:25.067Z</time></trkpt><trkpt lat="45.3711245" lon="8.0302484"><ele>293.66666666666663</ele><time>2026-04-27T17:56:26.067Z</time></trkpt><trkpt lat="45.370979" lon="8.0303915"><ele>292.3333333333333</ele><time>2026-04-27T17:56:27.068Z</time></trkpt><trkpt lat="45.3708338" lon="8.0305362"><ele>291.0</ele><time>2026-04-27T17:56:28.068Z</time></trkpt><trkpt lat="45.3706895" lon="8.0306797"><ele>290.6666666666667</ele><time>2026-04-27T17:56:29.067Z</time></trkpt><trkpt lat="45.3705456" lon="8.0308195"><ele>290.33333333333337</ele><time>2026-04-27T17:56:30.068Z</time></trkpt><trkpt lat="45.3704056" lon="8.030947"><ele>290.0</ele><time>2026-04-27T17:56:31.069Z</time></trkpt><trkpt lat="45.3702725" lon="8.0310572"><ele>290.0</ele><time>2026-04-27T17:56:32.068Z</time></trkpt><trkpt lat="45.3701379" lon="8.0311545"><ele>290.0</ele><time>2026-04-27T17:56:33.067Z</time></trkpt><trkpt lat="45.3699995" lon="8.0312445"><ele>290.0</ele><time>2026-04-27T17:56:34.066Z</time></trkpt><trkpt lat="45.369858" lon="8.0313383"><ele>290.0</ele><time>2026-04-27T17:56:35.067Z</time></trkpt><trkpt lat="45.3697146" lon="8.0314335"><ele>290.0</ele><time>2026-04-27T17:56:36.067Z</time></trkpt><trkpt lat="45.3695709" lon="8.0315237"><ele>290.0</ele><time>2026-04-27T17:56:37.066Z</time></trkpt><trkpt lat="45.3694256" lon="8.0316208"><ele>288.33333333333337</ele><time>2026-04-27T17:56:38.067Z</time></trkpt><trkpt lat="45.3692778" lon="8.0317179"><ele>286.6666666666667</ele><time>2026-04-27T17:56:39.067Z</time></trkpt><trkpt lat="45.3691371" lon="8.0318169"><ele>285.0</ele><time>2026-04-27T17:56:40.067Z</time></trkpt><trkpt lat="45.3689923" lon="8.0319091"><ele>283.6666666666667</ele><time>2026-04-27T17:56:41.068Z</time></trkpt><trkpt lat="45.3688554" lon="8.0320125"><ele>282.33333333333337</ele><time>2026-04-27T17:56:42.066Z</time></trkpt><trkpt lat="45.3687179" lon="8.0321226"><ele>281.0</ele><time>2026-04-27T17:56:43.067Z</time></trkpt><trkpt lat="45.3685854" lon="8.0322342"><ele>281.0</ele><time>2026-04-27T17:56:44.067Z</time></trkpt><trkpt lat="45.3684532" lon="8.0323503"><ele>281.0</ele><time>2026-04-27T17:56:45.067Z</time></trkpt><trkpt lat="45.3683208" lon="8.0324633"><ele>281.0</ele><time>2026-04-27T17:56:46.069Z</time></trkpt><trkpt lat="45.368188" lon="8.0325829"><ele>281.0</ele><time>2026-04-27T17:56:47.066Z</time></trkpt><trkpt lat="45.368059" lon="8.0326992"><ele>281.0</ele><time>2026-04-27T17:56:48.068Z</time></trkpt><trkpt lat="45.3679306" lon="8.0328142"><ele>281.0</ele><time>2026-04-27T17:56:49.067Z</time></trkpt><trkpt lat="45.3678016" lon="8.0329288"><ele>281.0</ele><time>2026-04-27T17:56:50.067Z</time></trkpt><trkpt lat="45.3676738" lon="8.0330465"><ele>281.0</ele><time>2026-04-27T17:56:51.068Z</time></trkpt><trkpt lat="45.3675461" lon="8.0331679"><ele>281.0</ele><time>2026-04-27T17:56:52.067Z</time></trkpt><trkpt lat="45.3674204" lon="8.0332833"><ele>280.33333333333337</ele><time>2026-04-27T17:56:53.067Z</time></trkpt><trkpt lat="45.3672982" lon="8.0334107"><ele>279.6666666666667</ele><time>2026-04-27T17:56:54.067Z</time></trkpt><trkpt lat="45.3671812" lon="8.0335441"><ele>279.0</ele><time>2026-04-27T17:56:55.067Z</time></trkpt><trkpt lat="45.3670634" lon="8.0336848"><ele>279.0</ele><time>2026-04-27T17:56:56.067Z</time></trkpt><trkpt lat="45.3669516" lon="8.0338287"><ele>279.0</ele><time>2026-04-27T17:56:57.068Z</time></trkpt><trkpt lat="45.3668361" lon="8.0339739"><ele>279.0</ele><time>2026-04-27T17:56:58.067Z</time></trkpt><trkpt lat="45.3667222" lon="8.0341154"><ele>278.6666666666667</ele><time>2026-04-27T17:56:59.067Z</time></trkpt><trkpt lat="45.3666057" lon="8.0342569"><ele>278.33333333333337</ele><time>2026-04-27T17:57:00.067Z</time></trkpt><trkpt lat="45.3664903" lon="8.034398"><ele>278.0</ele><time>2026-04-27T17:57:01.068Z</time></trkpt><trkpt lat="45.3663766" lon="8.0345379"><ele>277.33333333333337</ele><time>2026-04-27T17:57:02.068Z</time></trkpt><trkpt lat="45.3662624" lon="8.0346788"><ele>276.6666666666667</ele><time>2026-04-27T17:57:03.067Z</time></trkpt><trkpt lat="45.366145" lon="8.0348243"><ele>276.0</ele><time>2026-04-27T17:57:04.066Z</time></trkpt><trkpt lat="45.3660265" lon="8.0349697"><ele>276.0</ele><time>2026-04-27T17:57:05.067Z</time></trkpt><trkpt lat="45.3659024" lon="8.0351208"><ele>276.0</ele><time>2026-04-27T17:57:06.068Z</time></trkpt><trkpt lat="45.3657789" lon="8.0352741"><ele>276.0</ele><time>2026-04-27T17:57:07.068Z</time></trkpt><trkpt lat="45.3656605" lon="8.0354316"><ele>276.0</ele><time>2026-04-27T17:57:08.068Z</time></trkpt><trkpt lat="45.3655434" lon="8.0355943"><ele>276.0</ele><time>2026-04-27T17:57:09.067Z</time></trkpt><trkpt lat="45.3654271" lon="8.0357604"><ele>276.0</ele><time>2026-04-27T17:57:10.068Z</time></trkpt><trkpt lat="45.3653122" lon="8.0359278"><ele>275.6666666666667</ele><time>2026-04-27T17:57:11.069Z</time></trkpt><trkpt lat="45.3651942" lon="8.0360914"><ele>275.33333333333337</ele><time>2026-04-27T17:57:12.068Z</time></trkpt><trkpt lat="45.3650696" lon="8.0362451"><ele>275.0</ele><time>2026-04-27T17:57:13.068Z</time></trkpt><trkpt lat="45.3649373" lon="8.0363852"><ele>275.0</ele><time>2026-04-27T17:57:14.067Z</time></trkpt><trkpt lat="45.3647955" lon="8.0365108"><ele>275.0</ele><time>2026-04-27T17:57:15.068Z</time></trkpt><trkpt lat="45.3646476" lon="8.0366261"><ele>275.0</ele><time>2026-04-27T17:57:16.068Z</time></trkpt><trkpt lat="45.3644978" lon="8.0367298"><ele>274.0</ele><time>2026-04-27T17:57:17.068Z</time></trkpt><trkpt lat="45.3643487" lon="8.0368326"><ele>273.0</ele><time>2026-04-27T17:57:18.068Z</time></trkpt><trkpt lat="45.3642011" lon="8.036935"><ele>272.0</ele><time>2026-04-27T17:57:19.067Z</time></trkpt><trkpt lat="45.3640512" lon="8.0370352"><ele>272.0</ele><time>2026-04-27T17:57:20.067Z</time></trkpt><trkpt lat="45.3639014" lon="8.0371401"><ele>272.0</ele><time>2026-04-27T17:57:21.069Z</time></trkpt><trkpt lat="45.3637532" lon="8.0372572"><ele>272.0</ele><time>2026-04-27T17:57:22.067Z</time></trkpt><trkpt lat="45.3636134" lon="8.0373938"><ele>271.0</ele><time>2026-04-27T17:57:23.069Z</time></trkpt><trkpt lat="45.3634885" lon="8.0375512"><ele>270.0</ele><time>2026-04-27T17:57:24.067Z</time></trkpt><trkpt lat="45.3633765" lon="8.0377293"><ele>269.0</ele><time>2026-04-27T17:57:25.068Z</time></trkpt><trkpt lat="45.363277" lon="8.037919"><ele>269.0</ele><time>2026-04-27T17:57:26.067Z</time></trkpt><trkpt lat="45.3631854" lon="8.0381228"><ele>269.0</ele><time>2026-04-27T17:57:27.068Z</time></trkpt><trkpt lat="45.3630984" lon="8.0383285"><ele>269.0</ele><time>2026-04-27T17:57:28.068Z</time></trkpt><trkpt lat="45.3630126" lon="8.0385347"><ele>268.6666666666667</ele><time>2026-04-27T17:57:29.069Z</time></trkpt><trkpt lat="45.3629245" lon="8.0387463"><ele>268.3333333333333</ele><time>2026-04-27T17:57:30.067Z</time></trkpt><trkpt lat="45.3628326" lon="8.0389464"><ele>268.0</ele><time>2026-04-27T17:57:31.067Z</time></trkpt><trkpt lat="45.3627319" lon="8.039134"><ele>268.0</ele><time>2026-04-27T17:57:32.068Z</time></trkpt><trkpt lat="45.3626166" lon="8.0393116"><ele>268.0</ele><time>2026-04-27T17:57:33.067Z</time></trkpt><trkpt lat="45.3624876" lon="8.0394683"><ele>268.0</ele><time>2026-04-27T17:57:34.067Z</time></trkpt><trkpt lat="45.3623487" lon="8.0396022"><ele>268.0</ele><time>2026-04-27T17:57:35.068Z</time></trkpt><trkpt lat="45.3622061" lon="8.0397342"><ele>268.0</ele><time>2026-04-27T17:57:36.066Z</time></trkpt><trkpt lat="45.3620612" lon="8.0398606"><ele>268.0</ele><time>2026-04-27T17:57:37.068Z</time></trkpt><trkpt lat="45.3619168" lon="8.0399889"><ele>267.0</ele><time>2026-04-27T17:57:38.067Z</time></trkpt><trkpt lat="45.3617734" lon="8.0401252"><ele>266.0</ele><time>2026-04-27T17:57:39.069Z</time></trkpt><trkpt lat="45.3616293" lon="8.0402601"><ele>265.0</ele><time>2026-04-27T17:57:40.069Z</time></trkpt><trkpt lat="45.3614835" lon="8.0403947"><ele>265.0</ele><time>2026-04-27T17:57:41.067Z</time></trkpt><trkpt lat="45.361339" lon="8.0405235"><ele>265.0</ele><time>2026-04-27T17:57:42.067Z</time></trkpt><trkpt lat="45.3611959" lon="8.0406522"><ele>265.0</ele><time>2026-04-27T17:57:43.067Z</time></trkpt><trkpt lat="45.3610533" lon="8.0407821"><ele>264.66666666666663</ele><time>2026-04-27T17:57:44.067Z</time></trkpt><trkpt lat="45.3609092" lon="8.0409105"><ele>264.3333333333333</ele><time>2026-04-27T17:57:45.067Z</time></trkpt><trkpt lat="45.360767" lon="8.0410406"><ele>264.0</ele><time>2026-04-27T17:57:46.068Z</time></trkpt><trkpt lat="45.3606251" lon="8.0411702"><ele>263.6666666666667</ele><time>2026-04-27T17:57:47.068Z</time></trkpt><trkpt lat="45.3604827" lon="8.0413031"><ele>263.33333333333337</ele><time>2026-04-27T17:57:48.067Z</time></trkpt><trkpt lat="45.3603422" lon="8.0414314"><ele>263.0</ele><time>2026-04-27T17:57:49.069Z</time></trkpt><trkpt lat="45.3601959" lon="8.041563"><ele>262.6666666666667</ele><time>2026-04-27T17:57:50.068Z</time></trkpt><trkpt lat="45.3600525" lon="8.0416954"><ele>262.3333333333333</ele><time>2026-04-27T17:57:51.068Z</time></trkpt><trkpt lat="45.3599116" lon="8.0418243"><ele>262.0</ele><time>2026-04-27T17:57:52.067Z</time></trkpt><trkpt lat="45.3597679" lon="8.0419522"><ele>261.3333333333333</ele><time>2026-04-27T17:57:53.067Z</time></trkpt><trkpt lat="45.359619" lon="8.0420824"><ele>260.6666666666667</ele><time>2026-04-27T17:57:54.067Z</time></trkpt><trkpt lat="45.3594748" lon="8.042215"><ele>260.0</ele><time>2026-04-27T17:57:55.067Z</time></trkpt><trkpt lat="45.3593304" lon="8.0423472"><ele>260.0</ele><time>2026-04-27T17:57:56.068Z</time></trkpt><trkpt lat="45.3591836" lon="8.0424809"><ele>260.0</ele><time>2026-04-27T17:57:57.067Z</time></trkpt><trkpt lat="45.3590381" lon="8.0426136"><ele>260.0</ele><time>2026-04-27T17:57:58.069Z</time></trkpt><trkpt lat="45.3588933" lon="8.0427487"><ele>259.0</ele><time>2026-04-27T17:57:59.068Z</time></trkpt><trkpt lat="45.3587449" lon="8.0428852"><ele>258.0</ele><time>2026-04-27T17:58:00.067Z</time></trkpt><trkpt lat="45.3585958" lon="8.0430195"><ele>257.0</ele><time>2026-04-27T17:58:01.067Z</time></trkpt><trkpt lat="45.3584447" lon="8.0431576"><ele>257.0</ele><time>2026-04-27T17:58:02.067Z</time></trkpt><trkpt lat="45.3582905" lon="8.0432965"><ele>257.0</ele><time>2026-04-27T17:58:03.067Z</time></trkpt><trkpt lat="45.3581382" lon="8.0434373"><ele>257.0</ele><time>2026-04-27T17:58:04.068Z</time></trkpt><trkpt lat="45.3579822" lon="8.0435789"><ele>257.0</ele><time>2026-04-27T17:58:05.068Z</time></trkpt><trkpt lat="45.357831" lon="8.0437136"><ele>257.0</ele><time>2026-04-27T17:58:06.067Z</time></trkpt><trkpt lat="45.3576827" lon="8.0438467"><ele>257.0</ele><time>2026-04-27T17:58:07.067Z</time></trkpt><trkpt lat="45.3575334" lon="8.0439819"><ele>257.0</ele><time>2026-04-27T17:58:08.068Z</time></trkpt><trkpt lat="45.3573894" lon="8.0441113"><ele>257.0</ele><time>2026-04-27T17:58:09.067Z</time></trkpt><trkpt lat="45.3572455" lon="8.044239"><ele>257.0</ele><time>2026-04-27T17:58:10.067Z</time></trkpt><trkpt lat="45.3571068" lon="8.0443762"><ele>256.6666666666667</ele><time>2026-04-27T17:58:11.068Z</time></trkpt><trkpt lat="45.3569718" lon="8.044517"><ele>256.3333333333333</ele><time>2026-04-27T17:58:12.067Z</time></trkpt><trkpt lat="45.3568394" lon="8.0446606"><ele>256.0</ele><time>2026-04-27T17:58:13.067Z</time></trkpt><trkpt lat="45.35671" lon="8.0448009"><ele>256.0</ele><time>2026-04-27T17:58:14.068Z</time></trkpt><trkpt lat="45.3565817" lon="8.0449413"><ele>256.0</ele><time>2026-04-27T17:58:15.068Z</time></trkpt><trkpt lat="45.3564554" lon="8.045088"><ele>256.0</ele><time>2026-04-27T17:58:16.068Z</time></trkpt><trkpt lat="45.3563317" lon="8.0452321"><ele>255.33333333333331</ele><time>2026-04-27T17:58:17.068Z</time></trkpt><trkpt lat="45.3562061" lon="8.0453754"><ele>254.66666666666669</ele><time>2026-04-27T17:58:18.068Z</time></trkpt><trkpt lat="45.3560785" lon="8.0455176"><ele>254.0</ele><time>2026-04-27T17:58:19.066Z</time></trkpt><trkpt lat="45.3559543" lon="8.0456568"><ele>254.0</ele><time>2026-04-27T17:58:20.066Z</time></trkpt><trkpt lat="45.3558309" lon="8.0457985"><ele>254.0</ele><time>2026-04-27T17:58:21.066Z</time></trkpt><trkpt lat="45.3557074" lon="8.0459384"><ele>254.0</ele><time>2026-04-27T17:58:22.067Z</time></trkpt><trkpt lat="45.3555868" lon="8.046077"><ele>253.75</ele><time>2026-04-27T17:58:23.067Z</time></trkpt><trkpt lat="45.3554714" lon="8.0462052"><ele>253.5</ele><time>2026-04-27T17:58:24.068Z</time></trkpt><trkpt lat="45.3553614" lon="8.0463251"><ele>253.25</ele><time>2026-04-27T17:58:25.068Z</time></trkpt><trkpt lat="45.3552529" lon="8.0464437"><ele>253.0</ele><time>2026-04-27T17:58:26.068Z</time></trkpt><trkpt lat="45.3551502" lon="8.046555"><ele>252.75</ele><time>2026-04-27T17:58:27.068Z</time></trkpt><trkpt lat="45.3550555" lon="8.0466625"><ele>252.5</ele><time>2026-04-27T17:58:28.067Z</time></trkpt><trkpt lat="45.3549631" lon="8.0467677"><ele>252.25</ele><time>2026-04-27T17:58:29.067Z</time></trkpt><trkpt lat="45.3548687" lon="8.046872"><ele>252.0</ele><time>2026-04-27T17:58:30.067Z</time></trkpt><trkpt lat="45.3547716" lon="8.0469783"><ele>251.75</ele><time>2026-04-27T17:58:31.067Z</time></trkpt><trkpt lat="45.3546737" lon="8.0470906"><ele>251.5</ele><time>2026-04-27T17:58:32.067Z</time></trkpt><trkpt lat="45.354575" lon="8.0471999"><ele>251.25</ele><time>2026-04-27T17:58:33.068Z</time></trkpt><trkpt lat="45.3544736" lon="8.0473124"><ele>251.0</ele><time>2026-04-27T17:58:34.068Z</time></trkpt><trkpt lat="45.3543725" lon="8.0474198"><ele>250.75</ele><time>2026-04-27T17:58:35.068Z</time></trkpt><trkpt lat="45.3542691" lon="8.0475329"><ele>250.5</ele><time>2026-04-27T17:58:36.066Z</time></trkpt><trkpt lat="45.3541691" lon="8.0476411"><ele>250.25</ele><time>2026-04-27T17:58:37.068Z</time></trkpt><trkpt lat="45.3540769" lon="8.0477426"><ele>250.0</ele><time>2026-04-27T17:58:38.067Z</time></trkpt><trkpt lat="45.3539899" lon="8.0478409"><ele>250.0</ele><time>2026-04-27T17:58:39.069Z</time></trkpt><trkpt lat="45.3539029" lon="8.0479433"><ele>250.0</ele><time>2026-04-27T17:58:40.067Z</time></trkpt><trkpt lat="45.3538137" lon="8.0480446"><ele>250.0</ele><time>2026-04-27T17:58:41.067Z</time></trkpt><trkpt lat="45.3537206" lon="8.0481521"><ele>250.0</ele><time>2026-04-27T17:58:42.068Z</time></trkpt><trkpt lat="45.3536254" lon="8.0482573"><ele>249.75</ele><time>2026-04-27T17:58:43.068Z</time></trkpt><trkpt lat="45.3535272" lon="8.0483663"><ele>249.5</ele><time>2026-04-27T17:58:44.067Z</time></trkpt><trkpt lat="45.3534266" lon="8.0484782"><ele>249.25</ele><time>2026-04-27T17:58:45.069Z</time></trkpt><trkpt lat="45.3533245" lon="8.0485871"><ele>249.0</ele><time>2026-04-27T17:58:46.066Z</time></trkpt><trkpt lat="45.3532264" lon="8.0487009"><ele>249.0</ele><time>2026-04-27T17:58:47.066Z</time></trkpt><trkpt lat="45.3531245" lon="8.0488138"><ele>248.99999999999997</ele><time>2026-04-27T17:58:48.067Z</time></trkpt><trkpt lat="45.3530339" lon="8.0489164"><ele>248.99999999999997</ele><time>2026-04-27T17:58:49.068Z</time></trkpt><trkpt lat="45.3529462" lon="8.0490183"><ele>249.0</ele><time>2026-04-27T17:58:50.067Z</time></trkpt><trkpt lat="45.3528747" lon="8.0490962"><ele>249.0</ele><time>2026-04-27T17:58:51.068Z</time></trkpt><trkpt lat="45.3528209" lon="8.0491602"><ele>249.0</ele><time>2026-04-27T17:58:52.067Z</time></trkpt><trkpt lat="45.3527416" lon="8.049263"><ele>248.99999999999997</ele><time>2026-04-27T17:58:54.073Z</time></trkpt><trkpt lat="45.3526532" lon="8.0493649"><ele>248.99999999999997</ele><time>2026-04-27T17:58:56.068Z</time></trkpt><trkpt lat="45.3525974" lon="8.0494265"><ele>249.0</ele><time>2026-04-27T17:58:57.073Z</time></trkpt><trkpt lat="45.3525297" lon="8.0495052"><ele>249.0</ele><time>2026-04-27T17:58:58.067Z</time></trkpt><trkpt lat="45.3524506" lon="8.0495997"><ele>249.0</ele><time>2026-04-27T17:58:59.068Z</time></trkpt><trkpt lat="45.3523695" lon="8.0496938"><ele>249.0</ele><time>2026-04-27T17:59:00.067Z</time></trkpt><trkpt lat="45.3522788" lon="8.0497947"><ele>249.0</ele><time>2026-04-27T17:59:01.068Z</time></trkpt><trkpt lat="45.3521798" lon="8.0499057"><ele>249.0</ele><time>2026-04-27T17:59:02.067Z</time></trkpt><trkpt lat="45.3520816" lon="8.0500156"><ele>248.75</ele><time>2026-04-27T17:59:03.068Z</time></trkpt><trkpt lat="45.3519895" lon="8.0501238"><ele>248.5</ele><time>2026-04-27T17:59:04.067Z</time></trkpt><trkpt lat="45.351902" lon="8.0502246"><ele>248.25</ele><time>2026-04-27T17:59:05.068Z</time></trkpt><trkpt lat="45.3518183" lon="8.0503171"><ele>248.0</ele><time>2026-04-27T17:59:06.068Z</time></trkpt><trkpt lat="45.35173" lon="8.0504152"><ele>248.0</ele><time>2026-04-27T17:59:07.068Z</time></trkpt><trkpt lat="45.351651" lon="8.0505176"><ele>248.0</ele><time>2026-04-27T17:59:08.068Z</time></trkpt><trkpt lat="45.3515676" lon="8.0506108"><ele>248.0</ele><time>2026-04-27T17:59:09.068Z</time></trkpt><trkpt lat="45.3514873" lon="8.0507013"><ele>248.0</ele><time>2026-04-27T17:59:10.068Z</time></trkpt><trkpt lat="45.3514158" lon="8.0507831"><ele>248.0</ele><time>2026-04-27T17:59:11.067Z</time></trkpt><trkpt lat="45.3513406" lon="8.0508676"><ele>247.60000000000002</ele><time>2026-04-27T17:59:12.067Z</time></trkpt><trkpt lat="45.3512636" lon="8.0509565"><ele>247.20000000000002</ele><time>2026-04-27T17:59:13.067Z</time></trkpt><trkpt lat="45.3511712" lon="8.051045"><ele>246.8</ele><time>2026-04-27T17:59:14.067Z</time></trkpt><trkpt lat="45.3510816" lon="8.0511312"><ele>246.4</ele><time>2026-04-27T17:59:15.069Z</time></trkpt><trkpt lat="45.35099" lon="8.0512249"><ele>246.0</ele><time>2026-04-27T17:59:16.069Z</time></trkpt><trkpt lat="45.3509058" lon="8.05131"><ele>246.0</ele><time>2026-04-27T17:59:17.067Z</time></trkpt><trkpt lat="45.3508269" lon="8.0514063"><ele>246.00000000000003</ele><time>2026-04-27T17:59:18.069Z</time></trkpt><trkpt lat="45.350748" lon="8.0515073"><ele>246.00000000000003</ele><time>2026-04-27T17:59:19.067Z</time></trkpt><trkpt lat="45.3506751" lon="8.0516071"><ele>246.0</ele><time>2026-04-27T17:59:20.067Z</time></trkpt><trkpt lat="45.3506017" lon="8.0517165"><ele>246.0</ele><time>2026-04-27T17:59:21.067Z</time></trkpt><trkpt lat="45.3505244" lon="8.0518314"><ele>245.75</ele><time>2026-04-27T17:59:22.071Z</time></trkpt><trkpt lat="45.3504472" lon="8.0519524"><ele>245.5</ele><time>2026-04-27T17:59:23.067Z</time></trkpt><trkpt lat="45.3503657" lon="8.052075"><ele>245.25</ele><time>2026-04-27T17:59:24.067Z</time></trkpt><trkpt lat="45.3502891" lon="8.0521958"><ele>245.0</ele><time>2026-04-27T17:59:25.066Z</time></trkpt><trkpt lat="45.3502192" lon="8.0523119"><ele>245.0</ele><time>2026-04-27T17:59:26.068Z</time></trkpt><trkpt lat="45.3501478" lon="8.0524219"><ele>245.0</ele><time>2026-04-27T17:59:27.069Z</time></trkpt><trkpt lat="45.3500873" lon="8.0525297"><ele>245.0</ele><time>2026-04-27T17:59:28.066Z</time></trkpt><trkpt lat="45.3500287" lon="8.0526318"><ele>245.0</ele><time>2026-04-27T17:59:29.068Z</time></trkpt><trkpt lat="45.3499691" lon="8.0527289"><ele>245.0</ele><time>2026-04-27T17:59:30.069Z</time></trkpt><trkpt lat="45.3499148" lon="8.0528265"><ele>244.83333333333334</ele><time>2026-04-27T17:59:31.068Z</time></trkpt><trkpt lat="45.3498599" lon="8.0529136"><ele>244.66666666666669</ele><time>2026-04-27T17:59:32.067Z</time></trkpt><trkpt lat="45.3498063" lon="8.0529976"><ele>244.5</ele><time>2026-04-27T17:59:33.068Z</time></trkpt><trkpt lat="45.3497556" lon="8.0530801"><ele>244.33333333333331</ele><time>2026-04-27T17:59:34.067Z</time></trkpt><trkpt lat="45.3497106" lon="8.053159"><ele>244.16666666666666</ele><time>2026-04-27T17:59:35.068Z</time></trkpt><trkpt lat="45.3496231" lon="8.0532913"><ele>244.0</ele><time>2026-04-27T17:59:37.068Z</time></trkpt><trkpt lat="45.3495432" lon="8.053423"><ele>244.0</ele><time>2026-04-27T17:59:39.067Z</time></trkpt><trkpt lat="45.3495635" lon="8.0535561"><ele>243.99999999999997</ele><time>2026-04-27T17:59:41.068Z</time></trkpt><trkpt lat="45.3496688" lon="8.0536931"><ele>243.99999999999997</ele><time>2026-04-27T17:59:43.068Z</time></trkpt><trkpt lat="45.3497323" lon="8.0537679"><ele>244.0</ele><time>2026-04-27T17:59:44.067Z</time></trkpt><trkpt lat="45.3497997" lon="8.0538482"><ele>244.0</ele><time>2026-04-27T17:59:45.068Z</time></trkpt><trkpt lat="45.3498665" lon="8.0539275"><ele>243.83333333333331</ele><time>2026-04-27T17:59:46.069Z</time></trkpt><trkpt lat="45.3499396" lon="8.0540047"><ele>243.66666666666666</ele><time>2026-04-27T17:59:47.073Z</time></trkpt><trkpt lat="45.3500133" lon="8.0540793"><ele>243.5</ele><time>2026-04-27T17:59:48.068Z</time></trkpt><trkpt lat="45.3500774" lon="8.0541517"><ele>243.33333333333331</ele><time>2026-04-27T17:59:49.068Z</time></trkpt><trkpt lat="45.3501365" lon="8.0542223"><ele>243.16666666666666</ele><time>2026-04-27T17:59:50.067Z</time></trkpt><trkpt lat="45.3501896" lon="8.0542872"><ele>243.0</ele><time>2026-04-27T17:59:51.069Z</time></trkpt><trkpt lat="45.3502427" lon="8.0543446"><ele>243.0</ele><time>2026-04-27T17:59:52.068Z</time></trkpt><trkpt lat="45.3503355" lon="8.0544531"><ele>243.0</ele><time>2026-04-27T17:59:54.067Z</time></trkpt><trkpt lat="45.3504046" lon="8.0545235"><ele>243.0</ele><time>2026-04-27T17:59:56.067Z</time></trkpt><trkpt lat="45.3504764" lon="8.0545798"><ele>243.0</ele><time>2026-04-27T18:00:30.067Z</time></trkpt><trkpt lat="45.3505527" lon="8.0546543"><ele>243.0</ele><time>2026-04-27T18:00:32.068Z</time></trkpt><trkpt lat="45.350608" lon="8.0547083"><ele>243.0</ele><time>2026-04-27T18:00:33.067Z</time></trkpt><trkpt lat="45.3506659" lon="8.0547684"><ele>243.0</ele><time>2026-04-27T18:00:34.067Z</time></trkpt><trkpt lat="45.3507324" lon="8.0548296"><ele>243.0</ele><time>2026-04-27T18:00:35.069Z</time></trkpt><trkpt lat="45.3507899" lon="8.0548923"><ele>243.0</ele><time>2026-04-27T18:00:36.067Z</time></trkpt><trkpt lat="45.3508608" lon="8.0549679"><ele>243.0</ele><time>2026-04-27T18:00:37.067Z</time></trkpt><trkpt lat="45.3509302" lon="8.0550414"><ele>243.0</ele><time>2026-04-27T18:00:38.068Z</time></trkpt><trkpt lat="45.3509986" lon="8.0551107"><ele>243.0</ele><time>2026-04-27T18:00:39.069Z</time></trkpt><trkpt lat="45.3510764" lon="8.055177"><ele>243.2</ele><time>2026-04-27T18:00:40.068Z</time></trkpt><trkpt lat="45.3511458" lon="8.0552472"><ele>243.4</ele><time>2026-04-27T18:00:41.068Z</time></trkpt><trkpt lat="45.3512294" lon="8.0553211"><ele>243.59999999999997</ele><time>2026-04-27T18:00:42.067Z</time></trkpt><trkpt lat="45.3513262" lon="8.0553933"><ele>243.79999999999998</ele><time>2026-04-27T18:00:43.069Z</time></trkpt><trkpt lat="45.3514326" lon="8.0554674"><ele>244.0</ele><time>2026-04-27T18:00:44.069Z</time></trkpt><trkpt lat="45.3515337" lon="8.0555434"><ele>243.75</ele><time>2026-04-27T18:00:45.068Z</time></trkpt><trkpt lat="45.3516353" lon="8.0556178"><ele>243.5</ele><time>2026-04-27T18:00:46.068Z</time></trkpt><trkpt lat="45.3517389" lon="8.0556949"><ele>243.25</ele><time>2026-04-27T18:00:47.069Z</time></trkpt><trkpt lat="45.3518475" lon="8.055777"><ele>243.0</ele><time>2026-04-27T18:00:48.067Z</time></trkpt><trkpt lat="45.3519584" lon="8.055864"><ele>243.0</ele><time>2026-04-27T18:00:49.067Z</time></trkpt><trkpt lat="45.3520705" lon="8.0559465"><ele>243.0</ele><time>2026-04-27T18:00:50.068Z</time></trkpt><trkpt lat="45.3521915" lon="8.0560343"><ele>243.0</ele><time>2026-04-27T18:00:51.067Z</time></trkpt><trkpt lat="45.3523173" lon="8.056123"><ele>243.0</ele><time>2026-04-27T18:00:52.068Z</time></trkpt><trkpt lat="45.3524392" lon="8.0562091"><ele>243.25</ele><time>2026-04-27T18:00:53.068Z</time></trkpt><trkpt lat="45.3525628" lon="8.0562975"><ele>243.5</ele><time>2026-04-27T18:00:54.069Z</time></trkpt><trkpt lat="45.3526849" lon="8.0563892"><ele>243.75</ele><time>2026-04-27T18:00:55.068Z</time></trkpt><trkpt lat="45.3528061" lon="8.0564782"><ele>244.0</ele><time>2026-04-27T18:00:56.067Z</time></trkpt><trkpt lat="45.3529268" lon="8.0565692"><ele>243.75</ele><time>2026-04-27T18:00:57.067Z</time></trkpt><trkpt lat="45.3530355" lon="8.0566513"><ele>243.5</ele><time>2026-04-27T18:00:58.068Z</time></trkpt><trkpt lat="45.3531435" lon="8.0567332"><ele>243.25</ele><time>2026-04-27T18:00:59.067Z</time></trkpt><trkpt lat="45.3532403" lon="8.0567983"><ele>243.0</ele><time>2026-04-27T18:01:00.068Z</time></trkpt><trkpt lat="45.3533381" lon="8.0568679"><ele>243.75</ele><time>2026-04-27T18:01:01.069Z</time></trkpt><trkpt lat="45.3534439" lon="8.0569471"><ele>244.5</ele><time>2026-04-27T18:01:02.068Z</time></trkpt><trkpt lat="45.3535506" lon="8.0570281"><ele>245.25</ele><time>2026-04-27T18:01:03.069Z</time></trkpt><trkpt lat="45.3536629" lon="8.0571098"><ele>246.0</ele><time>2026-04-27T18:01:04.068Z</time></trkpt><trkpt lat="45.3537706" lon="8.0571875"><ele>246.0</ele><time>2026-04-27T18:01:05.068Z</time></trkpt><trkpt lat="45.3538685" lon="8.0572607"><ele>246.0</ele><time>2026-04-27T18:01:06.068Z</time></trkpt><trkpt lat="45.353967" lon="8.0573355"><ele>246.0</ele><time>2026-04-27T18:01:07.067Z</time></trkpt><trkpt lat="45.3540674" lon="8.05741"><ele>246.0</ele><time>2026-04-27T18:01:08.067Z</time></trkpt><trkpt lat="45.3541729" lon="8.0574877"><ele>245.75</ele><time>2026-04-27T18:01:09.068Z</time></trkpt><trkpt lat="45.3542855" lon="8.0575682"><ele>245.5</ele><time>2026-04-27T18:01:10.067Z</time></trkpt><trkpt lat="45.3544072" lon="8.0576521"><ele>245.25</ele><time>2026-04-27T18:01:11.068Z</time></trkpt><trkpt lat="45.3545308" lon="8.0577417"><ele>245.0</ele><time>2026-04-27T18:01:12.067Z</time></trkpt><trkpt lat="45.3546542" lon="8.0578293"><ele>245.33333333333334</ele><time>2026-04-27T18:01:13.067Z</time></trkpt><trkpt lat="45.3547842" lon="8.057929"><ele>245.66666666666669</ele><time>2026-04-27T18:01:14.067Z</time></trkpt><trkpt lat="45.3549125" lon="8.058038"><ele>246.0</ele><time>2026-04-27T18:01:15.068Z</time></trkpt><trkpt lat="45.3550396" lon="8.0581593"><ele>245.75</ele><time>2026-04-27T18:01:16.068Z</time></trkpt><trkpt lat="45.3551523" lon="8.0582922"><ele>245.5</ele><time>2026-04-27T18:01:17.069Z</time></trkpt><trkpt lat="45.3552568" lon="8.0584265"><ele>245.25</ele><time>2026-04-27T18:01:18.068Z</time></trkpt><trkpt lat="45.3553469" lon="8.0585641"><ele>245.0</ele><time>2026-04-27T18:01:19.067Z</time></trkpt><trkpt lat="45.3554284" lon="8.058702"><ele>245.0</ele><time>2026-04-27T18:01:20.068Z</time></trkpt><trkpt lat="45.3555015" lon="8.0588347"><ele>245.0</ele><time>2026-04-27T18:01:21.068Z</time></trkpt><trkpt lat="45.355568" lon="8.0589604"><ele>245.0</ele><time>2026-04-27T18:01:22.067Z</time></trkpt><trkpt lat="45.355639" lon="8.0590831"><ele>245.0</ele><time>2026-04-27T18:01:23.068Z</time></trkpt><trkpt lat="45.3557102" lon="8.0592078"><ele>244.5</ele><time>2026-04-27T18:01:24.068Z</time></trkpt><trkpt lat="45.3557825" lon="8.059338"><ele>244.0</ele><time>2026-04-27T18:01:25.068Z</time></trkpt><trkpt lat="45.3558563" lon="8.0594689"><ele>243.5</ele><time>2026-04-27T18:01:26.068Z</time></trkpt><trkpt lat="45.3559313" lon="8.0596002"><ele>243.0</ele><time>2026-04-27T18:01:27.067Z</time></trkpt><trkpt lat="45.3560062" lon="8.0597323"><ele>243.0</ele><time>2026-04-27T18:01:28.068Z</time></trkpt><trkpt lat="45.3560817" lon="8.0598679"><ele>243.0</ele><time>2026-04-27T18:01:29.067Z</time></trkpt><trkpt lat="45.3561601" lon="8.0600092"><ele>243.0</ele><time>2026-04-27T18:01:30.068Z</time></trkpt><trkpt lat="45.3562433" lon="8.0601507"><ele>243.0</ele><time>2026-04-27T18:01:31.067Z</time></trkpt><trkpt lat="45.3563242" lon="8.0602933"><ele>243.0</ele><time>2026-04-27T18:01:32.068Z</time></trkpt><trkpt lat="45.3564066" lon="8.0604372"><ele>243.0</ele><time>2026-04-27T18:01:33.067Z</time></trkpt><trkpt lat="45.3564893" lon="8.0605823"><ele>243.0</ele><time>2026-04-27T18:01:34.068Z</time></trkpt><trkpt lat="45.356569" lon="8.0607213"><ele>243.0</ele><time>2026-04-27T18:01:35.067Z</time></trkpt><trkpt lat="45.3566477" lon="8.0608575"><ele>243.0</ele><time>2026-04-27T18:01:36.068Z</time></trkpt><trkpt lat="45.3567209" lon="8.060988"><ele>243.0</ele><time>2026-04-27T18:01:37.068Z</time></trkpt><trkpt lat="45.3567938" lon="8.0611154"><ele>243.0</ele><time>2026-04-27T18:01:38.069Z</time></trkpt><trkpt lat="45.3568641" lon="8.061242"><ele>243.0</ele><time>2026-04-27T18:01:39.068Z</time></trkpt><trkpt lat="45.3569371" lon="8.0613701"><ele>243.0</ele><time>2026-04-27T18:01:40.068Z</time></trkpt><trkpt lat="45.3570029" lon="8.0614891"><ele>243.0</ele><time>2026-04-27T18:01:41.067Z</time></trkpt><trkpt lat="45.3570724" lon="8.0616111"><ele>243.0</ele><time>2026-04-27T18:01:42.068Z</time></trkpt><trkpt lat="45.357143" lon="8.0617384"><ele>243.0</ele><time>2026-04-27T18:01:43.067Z</time></trkpt><trkpt lat="45.3572141" lon="8.0618745"><ele>243.5</ele><time>2026-04-27T18:01:44.067Z</time></trkpt><trkpt lat="45.3572875" lon="8.0620056"><ele>244.0</ele><time>2026-04-27T18:01:45.067Z</time></trkpt><trkpt lat="45.3573624" lon="8.062142"><ele>244.5</ele><time>2026-04-27T18:01:46.067Z</time></trkpt><trkpt lat="45.3574398" lon="8.0622769"><ele>245.0</ele><time>2026-04-27T18:01:47.067Z</time></trkpt><trkpt lat="45.3575216" lon="8.0624165"><ele>245.0</ele><time>2026-04-27T18:01:48.068Z</time></trkpt><trkpt lat="45.3576022" lon="8.0625596"><ele>245.0</ele><time>2026-04-27T18:01:49.067Z</time></trkpt><trkpt lat="45.3576864" lon="8.0627049"><ele>245.0</ele><time>2026-04-27T18:01:50.067Z</time></trkpt><trkpt lat="45.3577731" lon="8.0628536"><ele>245.0</ele><time>2026-04-27T18:01:51.068Z</time></trkpt><trkpt lat="45.3578604" lon="8.063011"><ele>245.0</ele><time>2026-04-27T18:01:52.067Z</time></trkpt><trkpt lat="45.3579491" lon="8.0631672"><ele>245.0</ele><time>2026-04-27T18:01:53.067Z</time></trkpt><trkpt lat="45.3580379" lon="8.0633257"><ele>245.0</ele><time>2026-04-27T18:01:54.068Z</time></trkpt><trkpt lat="45.3581291" lon="8.0634862"><ele>245.0</ele><time>2026-04-27T18:01:55.068Z</time></trkpt><trkpt lat="45.3582216" lon="8.0636466"><ele>245.0</ele><time>2026-04-27T18:01:56.068Z</time></trkpt><trkpt lat="45.3583123" lon="8.0638057"><ele>245.0</ele><time>2026-04-27T18:01:57.067Z</time></trkpt><trkpt lat="45.358401" lon="8.0639623"><ele>245.0</ele><time>2026-04-27T18:01:58.067Z</time></trkpt><trkpt lat="45.3584857" lon="8.0641148"><ele>245.0</ele><time>2026-04-27T18:01:59.067Z</time></trkpt><trkpt lat="45.3585629" lon="8.0642584"><ele>245.0</ele><time>2026-04-27T18:02:00.068Z</time></trkpt><trkpt lat="45.3586415" lon="8.0644089"><ele>245.0</ele><time>2026-04-27T18:02:01.067Z</time></trkpt><trkpt lat="45.3587252" lon="8.0645695"><ele>245.0</ele><time>2026-04-27T18:02:02.068Z</time></trkpt><trkpt lat="45.3588136" lon="8.0647278"><ele>245.0</ele><time>2026-04-27T18:02:03.068Z</time></trkpt><trkpt lat="45.3589015" lon="8.064886"><ele>245.0</ele><time>2026-04-27T18:02:04.068Z</time></trkpt><trkpt lat="45.3589915" lon="8.0650413"><ele>245.0</ele><time>2026-04-27T18:02:05.067Z</time></trkpt><trkpt lat="45.3590843" lon="8.065196"><ele>245.0</ele><time>2026-04-27T18:02:06.068Z</time></trkpt><trkpt lat="45.3591808" lon="8.0653512"><ele>245.0</ele><time>2026-04-27T18:02:07.068Z</time></trkpt><trkpt lat="45.3592771" lon="8.0655143"><ele>245.0</ele><time>2026-04-27T18:02:08.068Z</time></trkpt><trkpt lat="45.3593737" lon="8.0656783"><ele>245.0</ele><time>2026-04-27T18:02:09.069Z</time></trkpt><trkpt lat="45.3594661" lon="8.0658491"><ele>245.0</ele><time>2026-04-27T18:02:10.068Z</time></trkpt><trkpt lat="45.3595618" lon="8.066016"><ele>244.66666666666669</ele><time>2026-04-27T18:02:11.068Z</time></trkpt><trkpt lat="45.3596558" lon="8.0661832"><ele>244.33333333333331</ele><time>2026-04-27T18:02:12.068Z</time></trkpt><trkpt lat="45.3597546" lon="8.0663525"><ele>244.0</ele><time>2026-04-27T18:02:13.068Z</time></trkpt><trkpt lat="45.3598494" lon="8.066525"><ele>244.0</ele><time>2026-04-27T18:02:14.069Z</time></trkpt><trkpt lat="45.3599473" lon="8.066697"><ele>244.0</ele><time>2026-04-27T18:02:15.068Z</time></trkpt><trkpt lat="45.3600456" lon="8.0668735"><ele>244.0</ele><time>2026-04-27T18:02:16.068Z</time></trkpt><trkpt lat="45.3601479" lon="8.067046"><ele>244.0</ele><time>2026-04-27T18:02:17.068Z</time></trkpt><trkpt lat="45.3602447" lon="8.0672218"><ele>244.0</ele><time>2026-04-27T18:02:18.067Z</time></trkpt><trkpt lat="45.3603395" lon="8.067389"><ele>244.0</ele><time>2026-04-27T18:02:19.069Z</time></trkpt><trkpt lat="45.360434" lon="8.0675539"><ele>244.0</ele><time>2026-04-27T18:02:20.068Z</time></trkpt><trkpt lat="45.3605281" lon="8.0677123"><ele>244.0</ele><time>2026-04-27T18:02:21.068Z</time></trkpt><trkpt lat="45.3606195" lon="8.0678745"><ele>244.0</ele><time>2026-04-27T18:02:22.068Z</time></trkpt><trkpt lat="45.3607129" lon="8.068033"><ele>244.0</ele><time>2026-04-27T18:02:23.067Z</time></trkpt><trkpt lat="45.3608056" lon="8.0681898"><ele>244.25</ele><time>2026-04-27T18:02:24.068Z</time></trkpt><trkpt lat="45.3608959" lon="8.0683451"><ele>244.5</ele><time>2026-04-27T18:02:25.067Z</time></trkpt><trkpt lat="45.3609847" lon="8.0685051"><ele>244.75</ele><time>2026-04-27T18:02:26.068Z</time></trkpt><trkpt lat="45.3610638" lon="8.0686709"><ele>245.0</ele><time>2026-04-27T18:02:27.068Z</time></trkpt><trkpt lat="45.361136" lon="8.0688395"><ele>245.0</ele><time>2026-04-27T18:02:28.068Z</time></trkpt><trkpt lat="45.3612027" lon="8.069018"><ele>245.0</ele><time>2026-04-27T18:02:29.068Z</time></trkpt><trkpt lat="45.361267" lon="8.069208"><ele>245.0</ele><time>2026-04-27T18:02:30.067Z</time></trkpt><trkpt lat="45.3613227" lon="8.0694042"><ele>245.0</ele><time>2026-04-27T18:02:31.067Z</time></trkpt><trkpt lat="45.3613694" lon="8.069606"><ele>245.33333333333334</ele><time>2026-04-27T18:02:32.068Z</time></trkpt><trkpt lat="45.3614078" lon="8.0698148"><ele>245.66666666666669</ele><time>2026-04-27T18:02:33.067Z</time></trkpt><trkpt lat="45.3614372" lon="8.0700265"><ele>246.0</ele><time>2026-04-27T18:02:34.069Z</time></trkpt><trkpt lat="45.3614562" lon="8.0702419"><ele>246.0</ele><time>2026-04-27T18:02:35.067Z</time></trkpt><trkpt lat="45.3614661" lon="8.070462"><ele>246.0</ele><time>2026-04-27T18:02:36.068Z</time></trkpt><trkpt lat="45.3614663" lon="8.0706825"><ele>246.0</ele><time>2026-04-27T18:02:37.067Z</time></trkpt><trkpt lat="45.3614635" lon="8.0709041"><ele>246.0</ele><time>2026-04-27T18:02:38.069Z</time></trkpt><trkpt lat="45.3614619" lon="8.0711219"><ele>246.0</ele><time>2026-04-27T18:02:39.067Z</time></trkpt><trkpt lat="45.3614568" lon="8.0713372"><ele>246.0</ele><time>2026-04-27T18:02:40.068Z</time></trkpt><trkpt lat="45.361453" lon="8.0715547"><ele>246.0</ele><time>2026-04-27T18:02:41.068Z</time></trkpt><trkpt lat="45.3614478" lon="8.0717701"><ele>246.0</ele><time>2026-04-27T18:02:42.068Z</time></trkpt><trkpt lat="45.361443" lon="8.0719853"><ele>246.0</ele><time>2026-04-27T18:02:43.069Z</time></trkpt><trkpt lat="45.3614382" lon="8.0721989"><ele>246.0</ele><time>2026-04-27T18:02:44.068Z</time></trkpt><trkpt lat="45.361432" lon="8.0724134"><ele>246.0</ele><time>2026-04-27T18:02:45.068Z</time></trkpt><trkpt lat="45.3614257" lon="8.0726327"><ele>246.0</ele><time>2026-04-27T18:02:46.068Z</time></trkpt><trkpt lat="45.3614234" lon="8.0728476"><ele>245.0</ele><time>2026-04-27T18:02:47.068Z</time></trkpt><trkpt lat="45.3614215" lon="8.0730662"><ele>244.0</ele><time>2026-04-27T18:02:48.068Z</time></trkpt><trkpt lat="45.3614159" lon="8.0732837"><ele>243.0</ele><time>2026-04-27T18:02:49.067Z</time></trkpt><trkpt lat="45.3614117" lon="8.0735046"><ele>243.0</ele><time>2026-04-27T18:02:50.068Z</time></trkpt><trkpt lat="45.3614072" lon="8.0737283"><ele>243.0</ele><time>2026-04-27T18:02:51.068Z</time></trkpt><trkpt lat="45.3614019" lon="8.0739536"><ele>243.0</ele><time>2026-04-27T18:02:52.067Z</time></trkpt><trkpt lat="45.3613928" lon="8.0741816"><ele>243.33333333333331</ele><time>2026-04-27T18:02:53.067Z</time></trkpt><trkpt lat="45.361381" lon="8.0744113"><ele>243.66666666666666</ele><time>2026-04-27T18:02:54.068Z</time></trkpt><trkpt lat="45.3613744" lon="8.074642"><ele>244.0</ele><time>2026-04-27T18:02:55.067Z</time></trkpt><trkpt lat="45.3613691" lon="8.0748745"><ele>243.0</ele><time>2026-04-27T18:02:56.067Z</time></trkpt><trkpt lat="45.3613635" lon="8.0751035"><ele>242.0</ele><time>2026-04-27T18:02:57.069Z</time></trkpt><trkpt lat="45.3613596" lon="8.0753297"><ele>241.0</ele><time>2026-04-27T18:02:58.068Z</time></trkpt><trkpt lat="45.3613539" lon="8.075553"><ele>241.33333333333331</ele><time>2026-04-27T18:02:59.068Z</time></trkpt><trkpt lat="45.3613484" lon="8.0757718"><ele>241.66666666666669</ele><time>2026-04-27T18:03:00.067Z</time></trkpt><trkpt lat="45.3613459" lon="8.0759901"><ele>242.0</ele><time>2026-04-27T18:03:01.067Z</time></trkpt><trkpt lat="45.3613426" lon="8.07621"><ele>242.0</ele><time>2026-04-27T18:03:02.068Z</time></trkpt><trkpt lat="45.3613393" lon="8.0764336"><ele>242.0</ele><time>2026-04-27T18:03:03.068Z</time></trkpt><trkpt lat="45.3613372" lon="8.0766624"><ele>242.0</ele><time>2026-04-27T18:03:04.068Z</time></trkpt><trkpt lat="45.3613435" lon="8.0768825"><ele>241.33333333333334</ele><time>2026-04-27T18:03:05.068Z</time></trkpt><trkpt lat="45.3613523" lon="8.0771048"><ele>240.66666666666669</ele><time>2026-04-27T18:03:06.068Z</time></trkpt><trkpt lat="45.3613672" lon="8.0773212"><ele>240.0</ele><time>2026-04-27T18:03:07.067Z</time></trkpt><trkpt lat="45.3613935" lon="8.0775326"><ele>239.75</ele><time>2026-04-27T18:03:08.068Z</time></trkpt><trkpt lat="45.3614319" lon="8.0777482"><ele>239.5</ele><time>2026-04-27T18:03:09.067Z</time></trkpt><trkpt lat="45.3614779" lon="8.0779465"><ele>239.25</ele><time>2026-04-27T18:03:10.067Z</time></trkpt><trkpt lat="45.3615343" lon="8.0781341"><ele>239.0</ele><time>2026-04-27T18:03:11.068Z</time></trkpt><trkpt lat="45.3616035" lon="8.0783089"><ele>239.0</ele><time>2026-04-27T18:03:12.068Z</time></trkpt><trkpt lat="45.3616753" lon="8.0784883"><ele>239.0</ele><time>2026-04-27T18:03:13.068Z</time></trkpt><trkpt lat="45.3617494" lon="8.0786648"><ele>239.0</ele><time>2026-04-27T18:03:14.068Z</time></trkpt><trkpt lat="45.3618392" lon="8.0788295"><ele>239.0</ele><time>2026-04-27T18:03:15.068Z</time></trkpt><trkpt lat="45.3619369" lon="8.0789875"><ele>239.0</ele><time>2026-04-27T18:03:16.067Z</time></trkpt><trkpt lat="45.3620376" lon="8.0791363"><ele>239.0</ele><time>2026-04-27T18:03:17.067Z</time></trkpt><trkpt lat="45.3621415" lon="8.0792803"><ele>239.0</ele><time>2026-04-27T18:03:18.068Z</time></trkpt><trkpt lat="45.3622478" lon="8.079422"><ele>239.0</ele><time>2026-04-27T18:03:19.067Z</time></trkpt><trkpt lat="45.3623529" lon="8.0795603"><ele>239.0</ele><time>2026-04-27T18:03:20.068Z</time></trkpt><trkpt lat="45.3624553" lon="8.0797008"><ele>239.0</ele><time>2026-04-27T18:03:21.067Z</time></trkpt><trkpt lat="45.3625539" lon="8.0798379"><ele>239.0</ele><time>2026-04-27T18:03:22.068Z</time></trkpt><trkpt lat="45.362654" lon="8.0799731"><ele>239.0</ele><time>2026-04-27T18:03:23.069Z</time></trkpt><trkpt lat="45.3627489" lon="8.0801037"><ele>239.0</ele><time>2026-04-27T18:03:24.067Z</time></trkpt><trkpt lat="45.3628385" lon="8.0802198"><ele>238.99999999999997</ele><time>2026-04-27T18:03:25.067Z</time></trkpt><trkpt lat="45.3629057" lon="8.0803103"><ele>238.99999999999997</ele><time>2026-04-27T18:03:26.067Z</time></trkpt><trkpt lat="45.3629482" lon="8.0804281"><ele>239.0</ele><time>2026-04-27T18:03:28.069Z</time></trkpt><trkpt lat="45.3628867" lon="8.0804754"><ele>239.0</ele><time>2026-04-27T18:03:30.069Z</time></trkpt><trkpt lat="45.3627808" lon="8.0804056"><ele>239.00000000000003</ele><time>2026-04-27T18:03:32.069Z</time></trkpt><trkpt lat="45.3627263" lon="8.0803449"><ele>239.0</ele><time>2026-04-27T18:03:33.069Z</time></trkpt><trkpt lat="45.3626698" lon="8.0802717"><ele>239.0</ele><time>2026-04-27T18:03:34.067Z</time></trkpt><trkpt lat="45.3626108" lon="8.0801892"><ele>239.0</ele><time>2026-04-27T18:03:35.067Z</time></trkpt><trkpt lat="45.3625486" lon="8.0800915"><ele>239.00000000000003</ele><time>2026-04-27T18:03:36.068Z</time></trkpt><trkpt lat="45.3624925" lon="8.0799998"><ele>239.0</ele><time>2026-04-27T18:03:37.069Z</time></trkpt><trkpt lat="45.3624438" lon="8.0799119"><ele>241.0</ele><time>2026-04-27T18:03:38.068Z</time></trkpt><trkpt lat="45.3623996" lon="8.079839"><ele>241.0</ele><time>2026-04-27T18:03:39.067Z</time></trkpt><trkpt lat="45.3623204" lon="8.0797275"><ele>241.0</ele><time>2026-04-27T18:03:41.069Z</time></trkpt><trkpt lat="45.3622467" lon="8.0796715"><ele>241.0</ele><time>2026-04-27T18:03:43.068Z</time></trkpt><trkpt lat="45.3621769" lon="8.0795979"><ele>239.0</ele><time>2026-04-27T18:03:46.068Z</time></trkpt><trkpt lat="45.362179" lon="8.0796901"><ele>239.0</ele><time>2026-04-27T18:03:50.067Z</time></trkpt></trkseg></trk></gpx>